PWSweather.com
Personal Weather Stations
Station Observations
KILASHKU1
Ashkum, IL

Ashkum, IL

Lat: 40.8779862, Lon: -87.846552

Elevation: 626

Station Type: Davis Vantage Pro 2

High Low Average
Temperature 39.7°F4.3°C 36.5°F2.5°C 37.4°F3.0°C
Dew Point 38.4°F3.6°C 35.2°F1.8°C 36.1°F2.3°C
Winds 11.0 mph 17.7 kmh Calm Calm 5.0 mph ENE8.0 kmh ENE
Wind Gusts 24.0 mph38.6 kmh 2.0 mph3.2 kmh 12.0 mph19.3 kmh
Humidity 95% 94% 95%
Pressure 30.14 in1020.7 mb 29.57 in1001.4 mb -
Precipitation 0.39 in9.9 mm - -
Hour Temp Dew Point Humidity Winds Wind Gusts Pressure Precip Precip Rate Daily Precip Total
12:00 AM 37.0°F2.8°C 35.4°F1.9°C 94% 1.0 mph E1.6 kmh E 3.0 mph4.8 kmh 30.14 in1020.7 mb 0.00 in0.0 mm 0.00 in0.0 mm 0.00 in0.0 mm
12:02 AM 37.0°F2.8°C 35.4°F1.9°C 94% 1.0 mph E1.6 kmh E 3.0 mph4.8 kmh 30.14 in1020.7 mb 0.00 in0.0 mm 0.00 in0.0 mm 0.00 in0.0 mm
12:04 AM 37.0°F2.8°C 35.4°F1.9°C 94% Calm Calm 3.0 mph4.8 kmh 30.14 in1020.7 mb 0.00 in0.0 mm 0.00 in0.0 mm 0.00 in0.0 mm
12:06 AM 37.0°F2.8°C 35.4°F1.9°C 94% Calm Calm 2.0 mph3.2 kmh 30.13 in1020.3 mb 0.00 in0.0 mm 0.00 in0.0 mm 0.00 in0.0 mm
12:08 AM 37.0°F2.8°C 35.4°F1.9°C 94% 1.0 mph E1.6 kmh E 2.0 mph3.2 kmh 30.13 in1020.3 mb 0.00 in0.0 mm 0.00 in0.0 mm 0.00 in0.0 mm
12:10 AM 37.0°F2.8°C 35.4°F1.9°C 94% Calm Calm 2.0 mph3.2 kmh 30.12 in1020.0 mb 0.00 in0.0 mm 0.00 in0.0 mm 0.00 in0.0 mm
12:12 AM 37.0°F2.8°C 35.4°F1.9°C 94% Calm Calm 2.0 mph3.2 kmh 30.11 in1019.6 mb 0.00 in0.0 mm 0.00 in0.0 mm 0.00 in0.0 mm
12:14 AM 37.0°F2.8°C 35.4°F1.9°C 94% Calm Calm 2.0 mph3.2 kmh 30.10 in1019.3 mb 0.00 in0.0 mm 0.00 in0.0 mm 0.00 in0.0 mm
12:16 AM 37.0°F2.8°C 35.4°F1.9°C 94% Calm Calm 2.0 mph3.2 kmh 30.10 in1019.3 mb 0.00 in0.0 mm 0.00 in0.0 mm 0.00 in0.0 mm
12:18 AM 37.0°F2.8°C 35.4°F1.9°C 94% 4.0 mph E6.4 kmh E 2.0 mph3.2 kmh 30.10 in1019.3 mb 0.00 in0.0 mm 0.00 in0.0 mm 0.00 in0.0 mm
12:20 AM 36.9°F2.7°C 35.3°F1.8°C 94% 3.0 mph ENE4.8 kmh ENE 4.0 mph6.4 kmh 30.10 in1019.3 mb 0.00 in0.0 mm 0.00 in0.0 mm 0.00 in0.0 mm
12:22 AM 36.9°F2.7°C 35.3°F1.8°C 94% 3.0 mph ENE4.8 kmh ENE 5.0 mph8.0 kmh 30.10 in1019.3 mb 0.00 in0.0 mm 0.00 in0.0 mm 0.00 in0.0 mm
12:24 AM 36.9°F2.7°C 35.3°F1.8°C 94% 3.0 mph ENE4.8 kmh ENE 5.0 mph8.0 kmh 30.10 in1019.3 mb 0.00 in0.0 mm 0.00 in0.0 mm 0.00 in0.0 mm
12:26 AM 36.9°F2.7°C 35.3°F1.8°C 94% 2.0 mph ENE3.2 kmh ENE 5.0 mph8.0 kmh 30.10 in1019.3 mb 0.00 in0.0 mm 0.00 in0.0 mm 0.00 in0.0 mm
12:28 AM 36.9°F2.7°C 35.3°F1.8°C 94% 2.0 mph ENE3.2 kmh ENE 8.0 mph12.9 kmh 30.09 in1019.0 mb 0.00 in0.0 mm 0.00 in0.0 mm 0.00 in0.0 mm
12:30 AM 36.9°F2.7°C 35.3°F1.8°C 94% 3.0 mph ENE4.8 kmh ENE 11.0 mph17.7 kmh 30.08 in1018.6 mb 0.00 in0.0 mm 0.00 in0.0 mm 0.00 in0.0 mm
12:32 AM 36.8°F2.7°C 35.2°F1.8°C 94% 4.0 mph ENE6.4 kmh ENE 11.0 mph17.7 kmh 30.07 in1018.3 mb 0.00 in0.0 mm 0.00 in0.0 mm 0.00 in0.0 mm
12:34 AM 36.8°F2.7°C 35.2°F1.8°C 94% 4.0 mph ENE6.4 kmh ENE 11.0 mph17.7 kmh 30.07 in1018.3 mb 0.00 in0.0 mm 0.00 in0.0 mm 0.00 in0.0 mm
12:36 AM 36.8°F2.7°C 35.2°F1.8°C 94% 5.0 mph ENE8.0 kmh ENE 11.0 mph17.7 kmh 30.07 in1018.3 mb 0.00 in0.0 mm 0.00 in0.0 mm 0.00 in0.0 mm
12:38 AM 36.8°F2.7°C 35.2°F1.8°C 94% 5.0 mph ENE8.0 kmh ENE 11.0 mph17.7 kmh 30.07 in1018.3 mb 0.00 in0.0 mm 0.00 in0.0 mm 0.00 in0.0 mm
12:40 AM 36.8°F2.7°C 35.5°F1.9°C 95% 5.0 mph ENE8.0 kmh ENE 12.0 mph19.3 kmh 30.07 in1018.3 mb 0.00 in0.0 mm 0.00 in0.0 mm 0.00 in0.0 mm
12:42 AM 36.8°F2.7°C 35.5°F1.9°C 95% 5.0 mph ENE8.0 kmh ENE 12.0 mph19.3 kmh 30.07 in1018.3 mb 0.00 in0.0 mm 0.00 in0.0 mm 0.00 in0.0 mm
12:44 AM 36.8°F2.7°C 35.5°F1.9°C 95% 5.0 mph ENE8.0 kmh ENE 12.0 mph19.3 kmh 30.07 in1018.3 mb 0.00 in0.0 mm 0.00 in0.0 mm 0.00 in0.0 mm
12:46 AM 36.8°F2.7°C 35.5°F1.9°C 95% 5.0 mph ENE8.0 kmh ENE 12.0 mph19.3 kmh 30.07 in1018.3 mb 0.00 in0.0 mm 0.00 in0.0 mm 0.00 in0.0 mm
12:48 AM 36.7°F2.6°C 35.4°F1.9°C 95% 5.0 mph ENE8.0 kmh ENE 13.0 mph20.9 kmh 30.06 in1017.9 mb 0.00 in0.0 mm 0.00 in0.0 mm 0.00 in0.0 mm
12:50 AM 36.7°F2.6°C 35.4°F1.9°C 95% 5.0 mph ENE8.0 kmh ENE 13.0 mph20.9 kmh 30.07 in1018.3 mb 0.00 in0.0 mm 0.00 in0.0 mm 0.00 in0.0 mm
12:52 AM 36.7°F2.6°C 35.4°F1.9°C 95% 5.0 mph ENE8.0 kmh ENE 13.0 mph20.9 kmh 30.07 in1018.3 mb 0.00 in0.0 mm 0.00 in0.0 mm 0.00 in0.0 mm
12:54 AM 36.7°F2.6°C 35.4°F1.9°C 95% 5.0 mph ENE8.0 kmh ENE 13.0 mph20.9 kmh 30.07 in1018.3 mb 0.00 in0.0 mm 0.00 in0.0 mm 0.00 in0.0 mm
12:56 AM 36.7°F2.6°C 35.4°F1.9°C 95% 5.0 mph ENE8.0 kmh ENE 13.0 mph20.9 kmh 30.07 in1018.3 mb 0.00 in0.0 mm 0.00 in0.0 mm 0.00 in0.0 mm
12:58 AM 36.8°F2.7°C 35.5°F1.9°C 95% 4.0 mph ENE6.4 kmh ENE 10.0 mph16.1 kmh 30.07 in1018.3 mb 0.00 in0.0 mm 0.00 in0.0 mm 0.00 in0.0 mm
01:00 AM 36.7°F2.6°C 35.4°F1.9°C 95% 5.0 mph ENE8.0 kmh ENE 11.0 mph17.7 kmh 30.07 in1018.3 mb 0.00 in0.0 mm 0.00 in0.0 mm 0.00 in0.0 mm
01:02 AM 36.7°F2.6°C 35.4°F1.9°C 95% 5.0 mph ENE8.0 kmh ENE 11.0 mph17.7 kmh 30.07 in1018.3 mb 0.00 in0.0 mm 0.00 in0.0 mm 0.00 in0.0 mm
01:04 AM 36.7°F2.6°C 35.4°F1.9°C 95% 5.0 mph ENE8.0 kmh ENE 11.0 mph17.7 kmh 30.06 in1017.9 mb 0.00 in0.0 mm 0.00 in0.0 mm 0.00 in0.0 mm
01:06 AM 36.7°F2.6°C 35.4°F1.9°C 95% 5.0 mph ENE8.0 kmh ENE 11.0 mph17.7 kmh 30.06 in1017.9 mb 0.00 in0.0 mm 0.00 in0.0 mm 0.00 in0.0 mm
01:08 AM 36.7°F2.6°C 35.4°F1.9°C 95% 5.0 mph ENE8.0 kmh ENE 11.0 mph17.7 kmh 30.05 in1017.6 mb 0.00 in0.0 mm 0.00 in0.0 mm 0.00 in0.0 mm
01:10 AM 36.8°F2.7°C 35.5°F1.9°C 95% 5.0 mph ENE8.0 kmh ENE 10.0 mph16.1 kmh 30.05 in1017.6 mb 0.00 in0.0 mm 0.00 in0.0 mm 0.00 in0.0 mm
01:12 AM 36.7°F2.6°C 35.4°F1.9°C 95% 4.0 mph ENE6.4 kmh ENE 10.0 mph16.1 kmh 30.05 in1017.6 mb 0.00 in0.0 mm 0.00 in0.0 mm 0.00 in0.0 mm
01:14 AM 36.7°F2.6°C 35.4°F1.9°C 95% 4.0 mph ENE6.4 kmh ENE 10.0 mph16.1 kmh 30.06 in1017.9 mb 0.00 in0.0 mm 0.00 in0.0 mm 0.00 in0.0 mm
01:16 AM 36.8°F2.7°C 35.5°F1.9°C 95% 4.0 mph ENE6.4 kmh ENE 8.0 mph12.9 kmh 30.06 in1017.9 mb 0.00 in0.0 mm 0.00 in0.0 mm 0.00 in0.0 mm
01:18 AM 36.7°F2.6°C 35.4°F1.9°C 95% 3.0 mph ENE4.8 kmh ENE 11.0 mph17.7 kmh 30.06 in1017.9 mb 0.00 in0.0 mm 0.00 in0.0 mm 0.00 in0.0 mm
01:20 AM 36.8°F2.7°C 35.5°F1.9°C 95% 4.0 mph ENE6.4 kmh ENE 11.0 mph17.7 kmh 30.05 in1017.6 mb 0.00 in0.0 mm 0.00 in0.0 mm 0.00 in0.0 mm
01:22 AM 36.8°F2.7°C 35.5°F1.9°C 95% 4.0 mph ENE6.4 kmh ENE 11.0 mph17.7 kmh 30.05 in1017.6 mb 0.00 in0.0 mm 0.00 in0.0 mm 0.00 in0.0 mm
01:24 AM 36.8°F2.7°C 35.5°F1.9°C 95% 4.0 mph ENE6.4 kmh ENE 11.0 mph17.7 kmh 30.05 in1017.6 mb 0.00 in0.0 mm 0.00 in0.0 mm 0.00 in0.0 mm
01:26 AM 36.8°F2.7°C 35.5°F1.9°C 95% 4.0 mph ENE6.4 kmh ENE 11.0 mph17.7 kmh 30.05 in1017.6 mb 0.00 in0.0 mm 0.00 in0.0 mm 0.00 in0.0 mm
01:28 AM 36.8°F2.7°C 35.5°F1.9°C 95% 4.0 mph ENE6.4 kmh ENE 10.0 mph16.1 kmh 30.05 in1017.6 mb 0.00 in0.0 mm 0.00 in0.0 mm 0.00 in0.0 mm
01:30 AM 36.8°F2.7°C 35.5°F1.9°C 95% 3.0 mph ENE4.8 kmh ENE 10.0 mph16.1 kmh 30.06 in1017.9 mb 0.00 in0.0 mm 0.00 in0.0 mm 0.00 in0.0 mm
01:32 AM 36.8°F2.7°C 35.5°F1.9°C 95% 3.0 mph ENE4.8 kmh ENE 10.0 mph16.1 kmh 30.06 in1017.9 mb 0.00 in0.0 mm 0.00 in0.0 mm 0.00 in0.0 mm
01:34 AM 36.8°F2.7°C 35.5°F1.9°C 95% 3.0 mph ENE4.8 kmh ENE 9.0 mph14.5 kmh 30.06 in1017.9 mb 0.00 in0.0 mm 0.00 in0.0 mm 0.00 in0.0 mm
01:36 AM 36.8°F2.7°C 35.5°F1.9°C 95% 3.0 mph E4.8 kmh E 7.0 mph11.3 kmh 30.07 in1018.3 mb 0.00 in0.0 mm 0.00 in0.0 mm 0.00 in0.0 mm
01:38 AM 36.8°F2.7°C 35.5°F1.9°C 95% 2.0 mph E3.2 kmh E 7.0 mph11.3 kmh 30.07 in1018.3 mb 0.00 in0.0 mm 0.00 in0.0 mm 0.00 in0.0 mm
01:40 AM 36.8°F2.7°C 35.5°F1.9°C 95% 2.0 mph E3.2 kmh E 7.0 mph11.3 kmh 30.07 in1018.3 mb 0.00 in0.0 mm 0.00 in0.0 mm 0.00 in0.0 mm
01:42 AM 36.8°F2.7°C 35.5°F1.9°C 95% 2.0 mph E3.2 kmh E 7.0 mph11.3 kmh 30.07 in1018.3 mb 0.00 in0.0 mm 0.00 in0.0 mm 0.00 in0.0 mm
01:44 AM 36.8°F2.7°C 35.5°F1.9°C 95% 2.0 mph E3.2 kmh E 4.0 mph6.4 kmh 30.08 in1018.6 mb 0.00 in0.0 mm 0.00 in0.0 mm 0.00 in0.0 mm
01:46 AM 36.8°F2.7°C 35.5°F1.9°C 95% 2.0 mph E3.2 kmh E 4.0 mph6.4 kmh 30.07 in1018.3 mb 0.00 in0.0 mm 0.00 in0.0 mm 0.00 in0.0 mm
01:48 AM 36.8°F2.7°C 35.5°F1.9°C 95% 2.0 mph E3.2 kmh E 7.0 mph11.3 kmh 30.07 in1018.3 mb 0.00 in0.0 mm 0.00 in0.0 mm 0.00 in0.0 mm
01:50 AM 36.8°F2.7°C 35.5°F1.9°C 95% 2.0 mph E3.2 kmh E 8.0 mph12.9 kmh 30.07 in1018.3 mb 0.00 in0.0 mm 0.00 in0.0 mm 0.00 in0.0 mm
01:52 AM 36.8°F2.7°C 35.5°F1.9°C 95% 2.0 mph ENE3.2 kmh ENE 8.0 mph12.9 kmh 30.07 in1018.3 mb 0.00 in0.0 mm 0.00 in0.0 mm 0.00 in0.0 mm
01:54 AM 36.8°F2.7°C 35.5°F1.9°C 95% 3.0 mph ENE4.8 kmh ENE 8.0 mph12.9 kmh 30.07 in1018.3 mb 0.00 in0.0 mm 0.00 in0.0 mm 0.00 in0.0 mm
01:56 AM 36.8°F2.7°C 35.5°F1.9°C 95% 3.0 mph ENE4.8 kmh ENE 8.0 mph12.9 kmh 30.06 in1017.9 mb 0.00 in0.0 mm 0.00 in0.0 mm 0.00 in0.0 mm
01:58 AM 36.8°F2.7°C 35.5°F1.9°C 95% 3.0 mph ENE4.8 kmh ENE 8.0 mph12.9 kmh 30.06 in1017.9 mb 0.00 in0.0 mm 0.00 in0.0 mm 0.00 in0.0 mm
02:00 AM 36.8°F2.7°C 35.5°F1.9°C 95% 3.0 mph ENE4.8 kmh ENE 7.0 mph11.3 kmh 30.06 in1017.9 mb 0.00 in0.0 mm 0.00 in0.0 mm 0.00 in0.0 mm
02:02 AM 36.8°F2.7°C 35.5°F1.9°C 95% 3.0 mph ENE4.8 kmh ENE 6.0 mph9.7 kmh 30.06 in1017.9 mb 0.00 in0.0 mm 0.00 in0.0 mm 0.00 in0.0 mm
02:04 AM 36.8°F2.7°C 35.5°F1.9°C 95% 3.0 mph ENE4.8 kmh ENE 6.0 mph9.7 kmh 30.06 in1017.9 mb 0.00 in0.0 mm 0.00 in0.0 mm 0.00 in0.0 mm
02:06 AM 36.8°F2.7°C 35.5°F1.9°C 95% 2.0 mph ENE3.2 kmh ENE 6.0 mph9.7 kmh 30.06 in1017.9 mb 0.00 in0.0 mm 0.00 in0.0 mm 0.00 in0.0 mm
02:08 AM 36.8°F2.7°C 35.5°F1.9°C 95% 2.0 mph ENE3.2 kmh ENE 6.0 mph9.7 kmh 30.06 in1017.9 mb 0.00 in0.0 mm 0.00 in0.0 mm 0.00 in0.0 mm
02:10 AM 36.8°F2.7°C 35.5°F1.9°C 95% 2.0 mph ENE3.2 kmh ENE 6.0 mph9.7 kmh 30.07 in1018.3 mb 0.00 in0.0 mm 0.00 in0.0 mm 0.00 in0.0 mm
02:12 AM 36.8°F2.7°C 35.5°F1.9°C 95% 2.0 mph NE3.2 kmh NE 4.0 mph6.4 kmh 30.07 in1018.3 mb 0.00 in0.0 mm 0.00 in0.0 mm 0.00 in0.0 mm
02:14 AM 36.8°F2.7°C 35.5°F1.9°C 95% 1.0 mph NE1.6 kmh NE 4.0 mph6.4 kmh 30.07 in1018.3 mb 0.00 in0.0 mm 0.00 in0.0 mm 0.00 in0.0 mm
02:16 AM 36.8°F2.7°C 35.5°F1.9°C 95% 1.0 mph NE1.6 kmh NE 4.0 mph6.4 kmh 30.07 in1018.3 mb 0.00 in0.0 mm 0.00 in0.0 mm 0.00 in0.0 mm
02:18 AM 36.8°F2.7°C 35.5°F1.9°C 95% 1.0 mph NE1.6 kmh NE 5.0 mph8.0 kmh 30.07 in1018.3 mb 0.00 in0.0 mm 0.00 in0.0 mm 0.00 in0.0 mm
02:20 AM 36.8°F2.7°C 35.5°F1.9°C 95% 1.0 mph NE1.6 kmh NE 7.0 mph11.3 kmh 30.07 in1018.3 mb 0.00 in0.0 mm 0.00 in0.0 mm 0.00 in0.0 mm
02:22 AM 36.8°F2.7°C 35.5°F1.9°C 95% 1.0 mph NE1.6 kmh NE 7.0 mph11.3 kmh 30.07 in1018.3 mb 0.00 in0.0 mm 0.00 in0.0 mm 0.00 in0.0 mm
02:24 AM 36.8°F2.7°C 35.5°F1.9°C 95% 1.0 mph NE1.6 kmh NE 7.0 mph11.3 kmh 30.07 in1018.3 mb 0.00 in0.0 mm 0.00 in0.0 mm 0.00 in0.0 mm
02:26 AM 36.8°F2.7°C 35.5°F1.9°C 95% 2.0 mph NE3.2 kmh NE 7.0 mph11.3 kmh 30.07 in1018.3 mb 0.00 in0.0 mm 0.00 in0.0 mm 0.00 in0.0 mm
02:28 AM 36.8°F2.7°C 35.5°F1.9°C 95% 2.0 mph NE3.2 kmh NE 7.0 mph11.3 kmh 30.07 in1018.3 mb 0.00 in0.0 mm 0.00 in0.0 mm 0.00 in0.0 mm
02:30 AM 36.8°F2.7°C 35.5°F1.9°C 95% 2.0 mph NE3.2 kmh NE 6.0 mph9.7 kmh 30.06 in1017.9 mb 0.00 in0.0 mm 0.00 in0.0 mm 0.00 in0.0 mm
02:32 AM 36.8°F2.7°C 35.5°F1.9°C 95% 3.0 mph NE4.8 kmh NE 6.0 mph9.7 kmh 30.07 in1018.3 mb 0.00 in0.0 mm 0.00 in0.0 mm 0.00 in0.0 mm
02:34 AM 36.8°F2.7°C 35.5°F1.9°C 95% 3.0 mph NE4.8 kmh NE 6.0 mph9.7 kmh 30.06 in1017.9 mb 0.00 in0.0 mm 0.00 in0.0 mm 0.00 in0.0 mm
02:36 AM 36.8°F2.7°C 35.5°F1.9°C 95% 3.0 mph ENE4.8 kmh ENE 6.0 mph9.7 kmh 30.06 in1017.9 mb 0.00 in0.0 mm 0.00 in0.0 mm 0.00 in0.0 mm
02:38 AM 36.8°F2.7°C 35.5°F1.9°C 95% 3.0 mph ENE4.8 kmh ENE 6.0 mph9.7 kmh 30.06 in1017.9 mb 0.00 in0.0 mm 0.00 in0.0 mm 0.00 in0.0 mm
02:40 AM 36.8°F2.7°C 35.5°F1.9°C 95% 3.0 mph ENE4.8 kmh ENE 6.0 mph9.7 kmh 30.06 in1017.9 mb 0.00 in0.0 mm 0.00 in0.0 mm 0.00 in0.0 mm
02:42 AM 36.8°F2.7°C 35.5°F1.9°C 95% 2.0 mph ENE3.2 kmh ENE 6.0 mph9.7 kmh 30.07 in1018.3 mb 0.00 in0.0 mm 0.00 in0.0 mm 0.00 in0.0 mm
02:44 AM 36.8°F2.7°C 35.5°F1.9°C 95% 2.0 mph ENE3.2 kmh ENE 5.0 mph8.0 kmh 30.07 in1018.3 mb 0.00 in0.0 mm 0.00 in0.0 mm 0.00 in0.0 mm
02:46 AM 36.8°F2.7°C 35.5°F1.9°C 95% 2.0 mph ENE3.2 kmh ENE 5.0 mph8.0 kmh 30.07 in1018.3 mb 0.00 in0.0 mm 0.00 in0.0 mm 0.00 in0.0 mm
02:48 AM 36.8°F2.7°C 35.5°F1.9°C 95% 1.0 mph ENE1.6 kmh ENE 4.0 mph6.4 kmh 30.07 in1018.3 mb 0.00 in0.0 mm 0.00 in0.0 mm 0.00 in0.0 mm
02:50 AM 36.8°F2.7°C 35.5°F1.9°C 95% 1.0 mph ENE1.6 kmh ENE 6.0 mph9.7 kmh 30.07 in1018.3 mb 0.00 in0.0 mm 0.00 in0.0 mm 0.00 in0.0 mm
02:52 AM 36.8°F2.7°C 35.5°F1.9°C 95% 1.0 mph ENE1.6 kmh ENE 6.0 mph9.7 kmh 30.06 in1017.9 mb 0.00 in0.0 mm 0.00 in0.0 mm 0.00 in0.0 mm
02:54 AM 36.8°F2.7°C 35.5°F1.9°C 95% 2.0 mph ENE3.2 kmh ENE 6.0 mph9.7 kmh 30.06 in1017.9 mb 0.00 in0.0 mm 0.00 in0.0 mm 0.00 in0.0 mm
02:56 AM 36.8°F2.7°C 35.5°F1.9°C 95% 2.0 mph ENE3.2 kmh ENE 6.0 mph9.7 kmh 30.06 in1017.9 mb 0.00 in0.0 mm 0.00 in0.0 mm 0.00 in0.0 mm
02:58 AM 36.8°F2.7°C 35.5°F1.9°C 95% 2.0 mph ENE3.2 kmh ENE 6.0 mph9.7 kmh 30.07 in1018.3 mb 0.00 in0.0 mm 0.00 in0.0 mm 0.00 in0.0 mm
03:00 AM 36.8°F2.7°C 35.5°F1.9°C 95% 2.0 mph ENE3.2 kmh ENE 6.0 mph9.7 kmh 30.07 in1018.3 mb 0.00 in0.0 mm 0.00 in0.0 mm 0.00 in0.0 mm
03:02 AM 36.8°F2.7°C 35.5°F1.9°C 95% 2.0 mph ENE3.2 kmh ENE 6.0 mph9.7 kmh 30.07 in1018.3 mb 0.00 in0.0 mm 0.00 in0.0 mm 0.00 in0.0 mm
03:04 AM 36.8°F2.7°C 35.5°F1.9°C 95% 2.0 mph ENE3.2 kmh ENE 6.0 mph9.7 kmh 30.06 in1017.9 mb 0.00 in0.0 mm 0.00 in0.0 mm 0.00 in0.0 mm
03:06 AM 36.8°F2.7°C 35.5°F1.9°C 95% 2.0 mph ENE3.2 kmh ENE 6.0 mph9.7 kmh 30.06 in1017.9 mb 0.00 in0.0 mm 0.00 in0.0 mm 0.00 in0.0 mm
03:08 AM 36.8°F2.7°C 35.5°F1.9°C 95% 2.0 mph ENE3.2 kmh ENE 6.0 mph9.7 kmh 30.06 in1017.9 mb 0.00 in0.0 mm 0.00 in0.0 mm 0.00 in0.0 mm
03:10 AM 36.8°F2.7°C 35.5°F1.9°C 95% 2.0 mph ENE3.2 kmh ENE 6.0 mph9.7 kmh 30.06 in1017.9 mb 0.00 in0.0 mm 0.00 in0.0 mm 0.00 in0.0 mm
03:12 AM 36.8°F2.7°C 35.5°F1.9°C 95% 2.0 mph E3.2 kmh E 6.0 mph9.7 kmh 30.06 in1017.9 mb 0.00 in0.0 mm 0.00 in0.0 mm 0.00 in0.0 mm
03:14 AM 36.8°F2.7°C 35.5°F1.9°C 95% 2.0 mph ENE3.2 kmh ENE 6.0 mph9.7 kmh 30.05 in1017.6 mb 0.00 in0.0 mm 0.00 in0.0 mm 0.00 in0.0 mm
03:16 AM 36.8°F2.7°C 35.5°F1.9°C 95% 2.0 mph ENE3.2 kmh ENE 6.0 mph9.7 kmh 30.05 in1017.6 mb 0.00 in0.0 mm 0.00 in0.0 mm 0.00 in0.0 mm
03:18 AM 36.8°F2.7°C 35.5°F1.9°C 95% 2.0 mph ENE3.2 kmh ENE 7.0 mph11.3 kmh 30.05 in1017.6 mb 0.00 in0.0 mm 0.00 in0.0 mm 0.00 in0.0 mm
03:20 AM 36.8°F2.7°C 35.5°F1.9°C 95% 3.0 mph ENE4.8 kmh ENE 7.0 mph11.3 kmh 30.05 in1017.6 mb 0.00 in0.0 mm 0.00 in0.0 mm 0.00 in0.0 mm
03:22 AM 36.8°F2.7°C 35.5°F1.9°C 95% 3.0 mph ENE4.8 kmh ENE 7.0 mph11.3 kmh 30.05 in1017.6 mb 0.00 in0.0 mm 0.00 in0.0 mm 0.00 in0.0 mm
03:24 AM 36.8°F2.7°C 35.5°F1.9°C 95% 3.0 mph ENE4.8 kmh ENE 7.0 mph11.3 kmh 30.04 in1017.3 mb 0.00 in0.0 mm 0.00 in0.0 mm 0.00 in0.0 mm
03:26 AM 36.8°F2.7°C 35.5°F1.9°C 95% 3.0 mph E4.8 kmh E 7.0 mph11.3 kmh 30.04 in1017.3 mb 0.00 in0.0 mm 0.00 in0.0 mm 0.00 in0.0 mm
03:28 AM 36.8°F2.7°C 35.5°F1.9°C 95% 3.0 mph E4.8 kmh E 7.0 mph11.3 kmh 30.05 in1017.6 mb 0.00 in0.0 mm 0.00 in0.0 mm 0.00 in0.0 mm
03:30 AM 36.8°F2.7°C 35.5°F1.9°C 95% 3.0 mph E4.8 kmh E 7.0 mph11.3 kmh 30.05 in1017.6 mb 0.00 in0.0 mm 0.00 in0.0 mm 0.00 in0.0 mm
03:32 AM 36.7°F2.6°C 35.4°F1.9°C 95% 2.0 mph E3.2 kmh E 7.0 mph11.3 kmh 30.05 in1017.6 mb 0.00 in0.0 mm 0.00 in0.0 mm 0.00 in0.0 mm
03:34 AM 36.8°F2.7°C 35.5°F1.9°C 95% 2.0 mph E3.2 kmh E 7.0 mph11.3 kmh 30.06 in1017.9 mb 0.00 in0.0 mm 0.00 in0.0 mm 0.00 in0.0 mm
03:36 AM 36.8°F2.7°C 35.5°F1.9°C 95% 1.0 mph ENE1.6 kmh ENE 7.0 mph11.3 kmh 30.06 in1017.9 mb 0.00 in0.0 mm 0.00 in0.0 mm 0.00 in0.0 mm
03:38 AM 36.8°F2.7°C 35.5°F1.9°C 95% 1.0 mph ENE1.6 kmh ENE 7.0 mph11.3 kmh 30.06 in1017.9 mb 0.00 in0.0 mm 0.00 in0.0 mm 0.00 in0.0 mm
03:40 AM 36.8°F2.7°C 35.5°F1.9°C 95% 1.0 mph ENE1.6 kmh ENE 4.0 mph6.4 kmh 30.05 in1017.6 mb 0.00 in0.0 mm 0.00 in0.0 mm 0.00 in0.0 mm
03:42 AM 36.8°F2.7°C 35.5°F1.9°C 95% 1.0 mph ENE1.6 kmh ENE 5.0 mph8.0 kmh 30.05 in1017.6 mb 0.00 in0.0 mm 0.00 in0.0 mm 0.00 in0.0 mm
03:44 AM 36.8°F2.7°C 35.5°F1.9°C 95% 2.0 mph ENE3.2 kmh ENE 5.0 mph8.0 kmh 30.05 in1017.6 mb 0.00 in0.0 mm 0.00 in0.0 mm 0.00 in0.0 mm
03:46 AM 36.8°F2.7°C 35.5°F1.9°C 95% 2.0 mph ENE3.2 kmh ENE 5.0 mph8.0 kmh 30.05 in1017.6 mb 0.00 in0.0 mm 0.00 in0.0 mm 0.00 in0.0 mm
03:48 AM 36.8°F2.7°C 35.5°F1.9°C 95% 2.0 mph ENE3.2 kmh ENE 5.0 mph8.0 kmh 30.05 in1017.6 mb 0.00 in0.0 mm 0.00 in0.0 mm 0.00 in0.0 mm
03:50 AM 36.8°F2.7°C 35.5°F1.9°C 95% 2.0 mph NE3.2 kmh NE 5.0 mph8.0 kmh 30.05 in1017.6 mb 0.00 in0.0 mm 0.00 in0.0 mm 0.00 in0.0 mm
03:52 AM 36.8°F2.7°C 35.5°F1.9°C 95% 2.0 mph NE3.2 kmh NE 4.0 mph6.4 kmh 30.05 in1017.6 mb 0.00 in0.0 mm 0.00 in0.0 mm 0.00 in0.0 mm
03:54 AM 36.8°F2.7°C 35.5°F1.9°C 95% 2.0 mph NE3.2 kmh NE 4.0 mph6.4 kmh 30.05 in1017.6 mb 0.00 in0.0 mm 0.00 in0.0 mm 0.00 in0.0 mm
03:56 AM 36.8°F2.7°C 35.5°F1.9°C 95% 2.0 mph NE3.2 kmh NE 4.0 mph6.4 kmh 30.04 in1017.3 mb 0.00 in0.0 mm 0.00 in0.0 mm 0.00 in0.0 mm
03:58 AM 36.8°F2.7°C 35.5°F1.9°C 95% 2.0 mph NE3.2 kmh NE 4.0 mph6.4 kmh 30.04 in1017.3 mb 0.00 in0.0 mm 0.00 in0.0 mm 0.00 in0.0 mm
04:00 AM 36.8°F2.7°C 35.5°F1.9°C 95% 2.0 mph ENE3.2 kmh ENE 4.0 mph6.4 kmh 30.04 in1017.3 mb 0.00 in0.0 mm 0.00 in0.0 mm 0.00 in0.0 mm
04:02 AM 36.8°F2.7°C 35.5°F1.9°C 95% 2.0 mph ENE3.2 kmh ENE 4.0 mph6.4 kmh 30.04 in1017.3 mb 0.00 in0.0 mm 0.00 in0.0 mm 0.00 in0.0 mm
04:04 AM 36.8°F2.7°C 35.5°F1.9°C 95% 2.0 mph ENE3.2 kmh ENE 4.0 mph6.4 kmh 30.03 in1016.9 mb 0.00 in0.0 mm 0.00 in0.0 mm 0.00 in0.0 mm
04:06 AM 36.8°F2.7°C 35.5°F1.9°C 95% 3.0 mph ENE4.8 kmh ENE 4.0 mph6.4 kmh 30.03 in1016.9 mb 0.00 in0.0 mm 0.00 in0.0 mm 0.00 in0.0 mm
04:08 AM 36.7°F2.6°C 35.4°F1.9°C 95% 2.0 mph ENE3.2 kmh ENE 4.0 mph6.4 kmh 30.03 in1016.9 mb 0.00 in0.0 mm 0.00 in0.0 mm 0.00 in0.0 mm
04:10 AM 36.7°F2.6°C 35.4°F1.9°C 95% 2.0 mph ENE3.2 kmh ENE 4.0 mph6.4 kmh 30.03 in1016.9 mb 0.00 in0.0 mm 0.00 in0.0 mm 0.00 in0.0 mm
04:12 AM 36.7°F2.6°C 35.4°F1.9°C 95% 2.0 mph ENE3.2 kmh ENE 4.0 mph6.4 kmh 30.03 in1016.9 mb 0.00 in0.0 mm 0.00 in0.0 mm 0.00 in0.0 mm
04:14 AM 36.7°F2.6°C 35.4°F1.9°C 95% 2.0 mph ENE3.2 kmh ENE 4.0 mph6.4 kmh 30.02 in1016.6 mb 0.00 in0.0 mm 0.00 in0.0 mm 0.00 in0.0 mm
04:16 AM 36.7°F2.6°C 35.4°F1.9°C 95% 2.0 mph ENE3.2 kmh ENE 4.0 mph6.4 kmh 30.02 in1016.6 mb 0.00 in0.0 mm 0.00 in0.0 mm 0.00 in0.0 mm
04:18 AM 36.7°F2.6°C 35.4°F1.9°C 95% 2.0 mph ENE3.2 kmh ENE 6.0 mph9.7 kmh 30.02 in1016.6 mb 0.00 in0.0 mm 0.00 in0.0 mm 0.00 in0.0 mm
04:22 AM 36.7°F2.6°C 35.4°F1.9°C 95% 2.0 mph ENE3.2 kmh ENE 6.0 mph9.7 kmh 30.01 in1016.3 mb 0.00 in0.0 mm 0.00 in0.0 mm 0.00 in0.0 mm
04:24 AM 36.7°F2.6°C 35.4°F1.9°C 95% 2.0 mph ENE3.2 kmh ENE 6.0 mph9.7 kmh 30.01 in1016.3 mb 0.00 in0.0 mm 0.00 in0.0 mm 0.00 in0.0 mm
04:26 AM 36.7°F2.6°C 35.4°F1.9°C 95% 2.0 mph ENE3.2 kmh ENE 6.0 mph9.7 kmh 30.01 in1016.3 mb 0.00 in0.0 mm 0.00 in0.0 mm 0.00 in0.0 mm
04:28 AM 36.7°F2.6°C 35.4°F1.9°C 95% 2.0 mph ENE3.2 kmh ENE 6.0 mph9.7 kmh 30.00 in1015.9 mb 0.00 in0.0 mm 0.00 in0.0 mm 0.00 in0.0 mm
04:30 AM 36.7°F2.6°C 35.4°F1.9°C 95% 2.0 mph ENE3.2 kmh ENE 6.0 mph9.7 kmh 30.00 in1015.9 mb 0.00 in0.0 mm 0.00 in0.0 mm 0.00 in0.0 mm
04:32 AM 36.7°F2.6°C 35.4°F1.9°C 95% 3.0 mph ENE4.8 kmh ENE 6.0 mph9.7 kmh 30.00 in1015.9 mb 0.00 in0.0 mm 0.00 in0.0 mm 0.00 in0.0 mm
04:34 AM 36.7°F2.6°C 35.4°F1.9°C 95% 3.0 mph ENE4.8 kmh ENE 8.0 mph12.9 kmh 29.99 in1015.6 mb 0.00 in0.0 mm 0.00 in0.0 mm 0.00 in0.0 mm
04:36 AM 36.6°F2.6°C 35.3°F1.8°C 95% 3.0 mph ENE4.8 kmh ENE 9.0 mph14.5 kmh 29.99 in1015.6 mb 0.00 in0.0 mm 0.00 in0.0 mm 0.00 in0.0 mm
04:38 AM 36.6°F2.6°C 35.3°F1.8°C 95% 4.0 mph ENE6.4 kmh ENE 12.0 mph19.3 kmh 29.98 in1015.2 mb 0.00 in0.0 mm 0.00 in0.0 mm 0.00 in0.0 mm
04:40 AM 36.6°F2.6°C 35.3°F1.8°C 95% 4.0 mph ENE6.4 kmh ENE 12.0 mph19.3 kmh 29.98 in1015.2 mb 0.00 in0.0 mm 0.00 in0.0 mm 0.00 in0.0 mm
04:42 AM 36.6°F2.6°C 35.3°F1.8°C 95% 5.0 mph ENE8.0 kmh ENE 12.0 mph19.3 kmh 29.98 in1015.2 mb 0.00 in0.0 mm 0.00 in0.0 mm 0.00 in0.0 mm
04:44 AM 36.6°F2.6°C 35.3°F1.8°C 95% 5.0 mph ENE8.0 kmh ENE 12.0 mph19.3 kmh 29.98 in1015.2 mb 0.00 in0.0 mm 0.00 in0.0 mm 0.00 in0.0 mm
04:46 AM 36.6°F2.6°C 35.3°F1.8°C 95% 6.0 mph ENE9.7 kmh ENE 12.0 mph19.3 kmh 29.98 in1015.2 mb 0.00 in0.0 mm 0.00 in0.0 mm 0.00 in0.0 mm
04:48 AM 36.6°F2.6°C 35.3°F1.8°C 95% 5.0 mph ENE8.0 kmh ENE 12.0 mph19.3 kmh 29.98 in1015.2 mb 0.00 in0.0 mm 0.00 in0.0 mm 0.00 in0.0 mm
04:50 AM 36.6°F2.6°C 35.3°F1.8°C 95% 5.0 mph ENE8.0 kmh ENE 12.0 mph19.3 kmh 29.98 in1015.2 mb 0.00 in0.0 mm 0.00 in0.0 mm 0.00 in0.0 mm
04:52 AM 36.6°F2.6°C 35.3°F1.8°C 95% 5.0 mph ENE8.0 kmh ENE 12.0 mph19.3 kmh 29.97 in1014.9 mb 0.00 in0.0 mm 0.00 in0.0 mm 0.00 in0.0 mm
04:54 AM 36.6°F2.6°C 35.3°F1.8°C 95% 5.0 mph ENE8.0 kmh ENE 12.0 mph19.3 kmh 29.96 in1014.6 mb 0.00 in0.0 mm 0.00 in0.0 mm 0.00 in0.0 mm
04:56 AM 36.6°F2.6°C 35.3°F1.8°C 95% 5.0 mph ENE8.0 kmh ENE 12.0 mph19.3 kmh 29.95 in1014.2 mb 0.00 in0.0 mm 0.00 in0.0 mm 0.00 in0.0 mm
04:58 AM 36.6°F2.6°C 35.3°F1.8°C 95% 5.0 mph ENE8.0 kmh ENE 12.0 mph19.3 kmh 29.95 in1014.2 mb 0.00 in0.0 mm 0.00 in0.0 mm 0.00 in0.0 mm
05:00 AM 36.6°F2.6°C 35.3°F1.8°C 95% 5.0 mph E8.0 kmh E 12.0 mph19.3 kmh 29.95 in1014.2 mb 0.00 in0.0 mm 0.00 in0.0 mm 0.00 in0.0 mm
05:02 AM 36.6°F2.6°C 35.3°F1.8°C 95% 5.0 mph E8.0 kmh E 9.0 mph14.5 kmh 29.95 in1014.2 mb 0.00 in0.0 mm 0.00 in0.0 mm 0.00 in0.0 mm
05:04 AM 36.5°F2.5°C 35.2°F1.8°C 95% 5.0 mph E8.0 kmh E 9.0 mph14.5 kmh 29.95 in1014.2 mb 0.00 in0.0 mm 0.00 in0.0 mm 0.00 in0.0 mm
05:06 AM 36.6°F2.6°C 35.3°F1.8°C 95% 5.0 mph E8.0 kmh E 9.0 mph14.5 kmh 29.95 in1014.2 mb 0.00 in0.0 mm 0.00 in0.0 mm 0.00 in0.0 mm
05:08 AM 36.6°F2.6°C 35.3°F1.8°C 95% 5.0 mph E8.0 kmh E 9.0 mph14.5 kmh 29.94 in1013.9 mb 0.00 in0.0 mm 0.00 in0.0 mm 0.00 in0.0 mm
05:10 AM 36.6°F2.6°C 35.3°F1.8°C 95% 5.0 mph E8.0 kmh E 9.0 mph14.5 kmh 29.94 in1013.9 mb 0.00 in0.0 mm 0.00 in0.0 mm 0.00 in0.0 mm
05:12 AM 36.6°F2.6°C 35.3°F1.8°C 95% 5.0 mph E8.0 kmh E 10.0 mph16.1 kmh 29.93 in1013.5 mb 0.00 in0.0 mm 0.00 in0.0 mm 0.00 in0.0 mm
05:14 AM 36.6°F2.6°C 35.3°F1.8°C 95% 5.0 mph E8.0 kmh E 10.0 mph16.1 kmh 29.93 in1013.5 mb 0.00 in0.0 mm 0.00 in0.0 mm 0.00 in0.0 mm
05:16 AM 36.6°F2.6°C 35.3°F1.8°C 95% 5.0 mph E8.0 kmh E 10.0 mph16.1 kmh 29.93 in1013.5 mb 0.00 in0.0 mm 0.00 in0.0 mm 0.00 in0.0 mm
05:18 AM 36.6°F2.6°C 35.3°F1.8°C 95% 4.0 mph E6.4 kmh E 10.0 mph16.1 kmh 29.92 in1013.2 mb 0.00 in0.0 mm 0.00 in0.0 mm 0.00 in0.0 mm
05:20 AM 36.6°F2.6°C 35.3°F1.8°C 95% 4.0 mph E6.4 kmh E 10.0 mph16.1 kmh 29.93 in1013.5 mb 0.00 in0.0 mm 0.00 in0.0 mm 0.00 in0.0 mm
05:22 AM 36.6°F2.6°C 35.3°F1.8°C 95% 4.0 mph E6.4 kmh E 8.0 mph12.9 kmh 29.93 in1013.5 mb 0.00 in0.0 mm 0.00 in0.0 mm 0.00 in0.0 mm
05:24 AM 36.6°F2.6°C 35.3°F1.8°C 95% 4.0 mph E6.4 kmh E 8.0 mph12.9 kmh 29.93 in1013.5 mb 0.00 in0.0 mm 0.00 in0.0 mm 0.00 in0.0 mm
05:26 AM 36.6°F2.6°C 35.3°F1.8°C 95% 4.0 mph E6.4 kmh E 8.0 mph12.9 kmh 29.93 in1013.5 mb 0.00 in0.0 mm 0.00 in0.0 mm 0.00 in0.0 mm
05:28 AM 36.6°F2.6°C 35.3°F1.8°C 95% 4.0 mph E6.4 kmh E 8.0 mph12.9 kmh 29.94 in1013.9 mb 0.00 in0.0 mm 0.00 in0.0 mm 0.00 in0.0 mm
05:30 AM 36.6°F2.6°C 35.3°F1.8°C 95% 3.0 mph E4.8 kmh E 8.0 mph12.9 kmh 29.95 in1014.2 mb 0.00 in0.0 mm 0.00 in0.0 mm 0.00 in0.0 mm
05:32 AM 36.6°F2.6°C 35.3°F1.8°C 95% 3.0 mph E4.8 kmh E 8.0 mph12.9 kmh 29.95 in1014.2 mb 0.00 in0.0 mm 0.00 in0.0 mm 0.00 in0.0 mm
05:34 AM 36.6°F2.6°C 35.3°F1.8°C 95% 3.0 mph E4.8 kmh E 8.0 mph12.9 kmh 29.95 in1014.2 mb 0.00 in0.0 mm 0.00 in0.0 mm 0.00 in0.0 mm
05:36 AM 36.6°F2.6°C 35.3°F1.8°C 95% 3.0 mph E4.8 kmh E 7.0 mph11.3 kmh 29.95 in1014.2 mb 0.00 in0.0 mm 0.00 in0.0 mm 0.00 in0.0 mm
05:38 AM 36.6°F2.6°C 35.3°F1.8°C 95% 3.0 mph E4.8 kmh E 7.0 mph11.3 kmh 29.95 in1014.2 mb 0.00 in0.0 mm 0.00 in0.0 mm 0.00 in0.0 mm
05:40 AM 36.7°F2.6°C 35.4°F1.9°C 95% 3.0 mph E4.8 kmh E 7.0 mph11.3 kmh 29.96 in1014.6 mb 0.00 in0.0 mm 0.00 in0.0 mm 0.00 in0.0 mm
05:42 AM 36.7°F2.6°C 35.4°F1.9°C 95% 3.0 mph E4.8 kmh E 6.0 mph9.7 kmh 29.96 in1014.6 mb 0.00 in0.0 mm 0.00 in0.0 mm 0.00 in0.0 mm
05:44 AM 36.7°F2.6°C 35.4°F1.9°C 95% 3.0 mph E4.8 kmh E 5.0 mph8.0 kmh 29.96 in1014.6 mb 0.00 in0.0 mm 0.00 in0.0 mm 0.00 in0.0 mm
05:46 AM 36.7°F2.6°C 35.4°F1.9°C 95% 2.0 mph E3.2 kmh E 5.0 mph8.0 kmh 29.96 in1014.6 mb 0.00 in0.0 mm 0.00 in0.0 mm 0.00 in0.0 mm
05:48 AM 36.7°F2.6°C 35.4°F1.9°C 95% 2.0 mph E3.2 kmh E 5.0 mph8.0 kmh 29.97 in1014.9 mb 0.00 in0.0 mm 0.00 in0.0 mm 0.00 in0.0 mm
05:50 AM 36.7°F2.6°C 35.4°F1.9°C 95% 2.0 mph E3.2 kmh E 5.0 mph8.0 kmh 29.97 in1014.9 mb 0.00 in0.0 mm 0.00 in0.0 mm 0.00 in0.0 mm
05:52 AM 36.7°F2.6°C 35.4°F1.9°C 95% 2.0 mph E3.2 kmh E 5.0 mph8.0 kmh 29.97 in1014.9 mb 0.00 in0.0 mm 0.00 in0.0 mm 0.00 in0.0 mm
05:54 AM 36.8°F2.7°C 35.5°F1.9°C 95% 2.0 mph E3.2 kmh E 5.0 mph8.0 kmh 29.97 in1014.9 mb 0.00 in0.0 mm 0.00 in0.0 mm 0.00 in0.0 mm
05:56 AM 36.8°F2.7°C 35.5°F1.9°C 95% 1.0 mph E1.6 kmh E 4.0 mph6.4 kmh 29.97 in1014.9 mb 0.00 in0.0 mm 0.00 in0.0 mm 0.00 in0.0 mm
05:58 AM 36.8°F2.7°C 35.5°F1.9°C 95% 1.0 mph E1.6 kmh E 4.0 mph6.4 kmh 29.97 in1014.9 mb 0.00 in0.0 mm 0.00 in0.0 mm 0.00 in0.0 mm
06:00 AM 36.8°F2.7°C 35.5°F1.9°C 95% 1.0 mph E1.6 kmh E 4.0 mph6.4 kmh 29.97 in1014.9 mb 0.00 in0.0 mm 0.00 in0.0 mm 0.00 in0.0 mm
06:02 AM 36.8°F2.7°C 35.5°F1.9°C 95% 1.0 mph E1.6 kmh E 5.0 mph8.0 kmh 29.97 in1014.9 mb 0.00 in0.0 mm 0.00 in0.0 mm 0.00 in0.0 mm
06:04 AM 36.8°F2.7°C 35.5°F1.9°C 95% 2.0 mph E3.2 kmh E 5.0 mph8.0 kmh 29.97 in1014.9 mb 0.00 in0.0 mm 0.00 in0.0 mm 0.00 in0.0 mm
06:06 AM 36.8°F2.7°C 35.5°F1.9°C 95% 2.0 mph ENE3.2 kmh ENE 5.0 mph8.0 kmh 29.97 in1014.9 mb 0.00 in0.0 mm 0.00 in0.0 mm 0.00 in0.0 mm
06:08 AM 36.8°F2.7°C 35.5°F1.9°C 95% 2.0 mph ENE3.2 kmh ENE 7.0 mph11.3 kmh 29.96 in1014.6 mb 0.00 in0.0 mm 0.00 in0.0 mm 0.00 in0.0 mm
06:12 AM 36.8°F2.7°C 35.5°F1.9°C 95% 3.0 mph E4.8 kmh E 6.0 mph9.7 kmh 29.96 in1014.6 mb 0.00 in0.0 mm 0.00 in0.0 mm 0.39 in9.9 mm
06:14 AM 36.8°F2.7°C 35.5°F1.9°C 95% 3.0 mph E4.8 kmh E 6.0 mph9.7 kmh 29.96 in1014.6 mb 0.00 in0.0 mm 0.00 in0.0 mm 0.39 in9.9 mm
06:16 AM 36.8°F2.7°C 35.5°F1.9°C 95% 3.0 mph E4.8 kmh E 7.0 mph11.3 kmh 29.97 in1014.9 mb 0.00 in0.0 mm 0.00 in0.0 mm 0.39 in9.9 mm
06:18 AM 36.8°F2.7°C 35.5°F1.9°C 95% 3.0 mph ENE4.8 kmh ENE 7.0 mph11.3 kmh 29.96 in1014.6 mb 0.00 in0.0 mm 0.00 in0.0 mm 0.39 in9.9 mm
06:20 AM 36.8°F2.7°C 35.5°F1.9°C 95% 3.0 mph ENE4.8 kmh ENE 7.0 mph11.3 kmh 29.96 in1014.6 mb 0.00 in0.0 mm 0.00 in0.0 mm 0.39 in9.9 mm
06:22 AM 36.8°F2.7°C 35.5°F1.9°C 95% 3.0 mph ENE4.8 kmh ENE 7.0 mph11.3 kmh 29.96 in1014.6 mb 0.00 in0.0 mm 0.00 in0.0 mm 0.39 in9.9 mm
06:24 AM 36.8°F2.7°C 35.5°F1.9°C 95% 3.0 mph ENE4.8 kmh ENE 8.0 mph12.9 kmh 29.96 in1014.6 mb 0.00 in0.0 mm 0.00 in0.0 mm 0.39 in9.9 mm
06:26 AM 36.8°F2.7°C 35.5°F1.9°C 95% 3.0 mph ENE4.8 kmh ENE 8.0 mph12.9 kmh 29.95 in1014.2 mb 0.00 in0.0 mm 0.00 in0.0 mm 0.39 in9.9 mm
06:28 AM 36.9°F2.7°C 35.6°F2.0°C 95% 3.0 mph ENE4.8 kmh ENE 9.0 mph14.5 kmh 29.96 in1014.6 mb 0.00 in0.0 mm 0.00 in0.0 mm 0.39 in9.9 mm
06:30 AM 36.8°F2.7°C 35.5°F1.9°C 95% 3.0 mph ENE4.8 kmh ENE 9.0 mph14.5 kmh 29.96 in1014.6 mb 0.00 in0.0 mm 0.00 in0.0 mm 0.39 in9.9 mm
06:32 AM 36.9°F2.7°C 35.6°F2.0°C 95% 3.0 mph ENE4.8 kmh ENE 9.0 mph14.5 kmh 29.96 in1014.6 mb 0.00 in0.0 mm 0.00 in0.0 mm 0.39 in9.9 mm
06:34 AM 36.9°F2.7°C 35.6°F2.0°C 95% 2.0 mph ENE3.2 kmh ENE 9.0 mph14.5 kmh 29.96 in1014.6 mb 0.00 in0.0 mm 0.00 in0.0 mm 0.39 in9.9 mm
06:36 AM 36.9°F2.7°C 35.6°F2.0°C 95% 2.0 mph NE3.2 kmh NE 9.0 mph14.5 kmh 29.96 in1014.6 mb 0.00 in0.0 mm 0.00 in0.0 mm 0.39 in9.9 mm
06:38 AM 36.9°F2.7°C 35.6°F2.0°C 95% 2.0 mph NE3.2 kmh NE 6.0 mph9.7 kmh 29.96 in1014.6 mb 0.00 in0.0 mm 0.00 in0.0 mm 0.39 in9.9 mm
06:40 AM 36.9°F2.7°C 35.6°F2.0°C 95% 2.0 mph NE3.2 kmh NE 7.0 mph11.3 kmh 29.97 in1014.9 mb 0.00 in0.0 mm 0.00 in0.0 mm 0.39 in9.9 mm
06:42 AM 36.9°F2.7°C 35.6°F2.0°C 95% 3.0 mph NE4.8 kmh NE 9.0 mph14.5 kmh 29.97 in1014.9 mb 0.00 in0.0 mm 0.00 in0.0 mm 0.39 in9.9 mm
06:44 AM 36.9°F2.7°C 35.6°F2.0°C 95% 3.0 mph NE4.8 kmh NE 9.0 mph14.5 kmh 29.96 in1014.6 mb 0.00 in0.0 mm 0.00 in0.0 mm 0.39 in9.9 mm
06:46 AM 36.9°F2.7°C 35.6°F2.0°C 95% 3.0 mph ENE4.8 kmh ENE 9.0 mph14.5 kmh 29.96 in1014.6 mb 0.00 in0.0 mm 0.00 in0.0 mm 0.39 in9.9 mm
06:48 AM 36.9°F2.7°C 35.6°F2.0°C 95% 4.0 mph ENE6.4 kmh ENE 9.0 mph14.5 kmh 29.96 in1014.6 mb 0.00 in0.0 mm 0.00 in0.0 mm 0.39 in9.9 mm
06:50 AM 36.9°F2.7°C 35.6°F2.0°C 95% 4.0 mph ENE6.4 kmh ENE 13.0 mph20.9 kmh 29.96 in1014.6 mb 0.00 in0.0 mm 0.00 in0.0 mm 0.39 in9.9 mm
06:52 AM 36.9°F2.7°C 35.6°F2.0°C 95% 4.0 mph ENE6.4 kmh ENE 13.0 mph20.9 kmh 29.96 in1014.6 mb 0.00 in0.0 mm 0.00 in0.0 mm 0.39 in9.9 mm
06:54 AM 36.9°F2.7°C 35.6°F2.0°C 95% 4.0 mph ENE6.4 kmh ENE 13.0 mph20.9 kmh 29.96 in1014.6 mb 0.00 in0.0 mm 0.00 in0.0 mm 0.39 in9.9 mm
06:56 AM 36.9°F2.7°C 35.6°F2.0°C 95% 5.0 mph ENE8.0 kmh ENE 13.0 mph20.9 kmh 29.96 in1014.6 mb 0.00 in0.0 mm 0.00 in0.0 mm 0.39 in9.9 mm
06:58 AM 36.9°F2.7°C 35.6°F2.0°C 95% 5.0 mph ENE8.0 kmh ENE 13.0 mph20.9 kmh 29.96 in1014.6 mb 0.00 in0.0 mm 0.00 in0.0 mm 0.39 in9.9 mm
07:00 AM 36.9°F2.7°C 35.6°F2.0°C 95% 5.0 mph ENE8.0 kmh ENE 10.0 mph16.1 kmh 29.95 in1014.2 mb 0.00 in0.0 mm 0.00 in0.0 mm 0.39 in9.9 mm
07:02 AM 36.9°F2.7°C 35.6°F2.0°C 95% 5.0 mph ENE8.0 kmh ENE 10.0 mph16.1 kmh 29.95 in1014.2 mb 0.00 in0.0 mm 0.00 in0.0 mm 0.39 in9.9 mm
07:04 AM 36.8°F2.7°C 35.5°F1.9°C 95% 6.0 mph ENE9.7 kmh ENE 12.0 mph19.3 kmh 29.95 in1014.2 mb 0.00 in0.0 mm 0.00 in0.0 mm 0.39 in9.9 mm
07:06 AM 36.9°F2.7°C 35.6°F2.0°C 95% 6.0 mph ENE9.7 kmh ENE 12.0 mph19.3 kmh 29.95 in1014.2 mb 0.00 in0.0 mm 0.00 in0.0 mm 0.39 in9.9 mm
07:08 AM 36.8°F2.7°C 35.5°F1.9°C 95% 6.0 mph ENE9.7 kmh ENE 12.0 mph19.3 kmh 29.94 in1013.9 mb 0.00 in0.0 mm 0.00 in0.0 mm 0.39 in9.9 mm
07:10 AM 36.8°F2.7°C 35.5°F1.9°C 95% 7.0 mph ENE11.3 kmh ENE 12.0 mph19.3 kmh 29.94 in1013.9 mb 0.00 in0.0 mm 0.00 in0.0 mm 0.39 in9.9 mm
07:12 AM 36.8°F2.7°C 35.5°F1.9°C 95% 7.0 mph ENE11.3 kmh ENE 12.0 mph19.3 kmh 29.94 in1013.9 mb 0.00 in0.0 mm 0.00 in0.0 mm 0.39 in9.9 mm
07:14 AM 36.8°F2.7°C 35.5°F1.9°C 95% 7.0 mph ENE11.3 kmh ENE 14.0 mph22.5 kmh 29.94 in1013.9 mb 0.00 in0.0 mm 0.00 in0.0 mm 0.39 in9.9 mm
07:16 AM 36.8°F2.7°C 35.5°F1.9°C 95% 7.0 mph ENE11.3 kmh ENE 14.0 mph22.5 kmh 29.94 in1013.9 mb 0.00 in0.0 mm 0.00 in0.0 mm 0.39 in9.9 mm
07:18 AM 36.8°F2.7°C 35.5°F1.9°C 95% 7.0 mph ENE11.3 kmh ENE 14.0 mph22.5 kmh 29.94 in1013.9 mb 0.00 in0.0 mm 0.00 in0.0 mm 0.39 in9.9 mm
07:20 AM 36.8°F2.7°C 35.5°F1.9°C 95% 7.0 mph ENE11.3 kmh ENE 14.0 mph22.5 kmh 29.93 in1013.5 mb 0.00 in0.0 mm 0.00 in0.0 mm 0.39 in9.9 mm
07:22 AM 36.8°F2.7°C 35.5°F1.9°C 95% 6.0 mph ENE9.7 kmh ENE 14.0 mph22.5 kmh 29.93 in1013.5 mb 0.00 in0.0 mm 0.00 in0.0 mm 0.39 in9.9 mm
07:24 AM 36.8°F2.7°C 35.5°F1.9°C 95% 6.0 mph ENE9.7 kmh ENE 13.0 mph20.9 kmh 29.92 in1013.2 mb 0.00 in0.0 mm 0.00 in0.0 mm 0.39 in9.9 mm
07:26 AM 36.8°F2.7°C 35.5°F1.9°C 95% 6.0 mph ENE9.7 kmh ENE 15.0 mph24.1 kmh 29.92 in1013.2 mb 0.00 in0.0 mm 0.00 in0.0 mm 0.39 in9.9 mm
07:28 AM 36.8°F2.7°C 35.5°F1.9°C 95% 6.0 mph ENE9.7 kmh ENE 15.0 mph24.1 kmh 29.93 in1013.5 mb 0.00 in0.0 mm 0.00 in0.0 mm 0.39 in9.9 mm
07:30 AM 36.8°F2.7°C 35.5°F1.9°C 95% 6.0 mph E9.7 kmh E 15.0 mph24.1 kmh 29.93 in1013.5 mb 0.00 in0.0 mm 0.00 in0.0 mm 0.39 in9.9 mm
07:32 AM 36.8°F2.7°C 35.5°F1.9°C 95% 6.0 mph ENE9.7 kmh ENE 15.0 mph24.1 kmh 29.92 in1013.2 mb 0.00 in0.0 mm 0.00 in0.0 mm 0.39 in9.9 mm
07:34 AM 36.8°F2.7°C 35.5°F1.9°C 95% 6.0 mph ENE9.7 kmh ENE 15.0 mph24.1 kmh 29.93 in1013.5 mb 0.00 in0.0 mm 0.00 in0.0 mm 0.39 in9.9 mm
07:36 AM 36.8°F2.7°C 35.5°F1.9°C 95% 5.0 mph ENE8.0 kmh ENE 11.0 mph17.7 kmh 29.93 in1013.5 mb 0.00 in0.0 mm 0.00 in0.0 mm 0.39 in9.9 mm
07:38 AM 36.8°F2.7°C 35.5°F1.9°C 95% 4.0 mph ENE6.4 kmh ENE 10.0 mph16.1 kmh 29.93 in1013.5 mb 0.00 in0.0 mm 0.00 in0.0 mm 0.39 in9.9 mm
07:40 AM 36.8°F2.7°C 35.5°F1.9°C 95% 5.0 mph ENE8.0 kmh ENE 13.0 mph20.9 kmh 29.93 in1013.5 mb 0.00 in0.0 mm 0.00 in0.0 mm 0.39 in9.9 mm
07:42 AM 36.8°F2.7°C 35.5°F1.9°C 95% 4.0 mph ENE6.4 kmh ENE 13.0 mph20.9 kmh 29.93 in1013.5 mb 0.00 in0.0 mm 0.00 in0.0 mm 0.39 in9.9 mm
07:44 AM 36.8°F2.7°C 35.5°F1.9°C 95% 5.0 mph ENE8.0 kmh ENE 13.0 mph20.9 kmh 29.93 in1013.5 mb 0.00 in0.0 mm 0.00 in0.0 mm 0.39 in9.9 mm
07:46 AM 36.9°F2.7°C 35.6°F2.0°C 95% 5.0 mph ENE8.0 kmh ENE 13.0 mph20.9 kmh 29.93 in1013.5 mb 0.00 in0.0 mm 0.00 in0.0 mm 0.39 in9.9 mm
07:48 AM 36.9°F2.7°C 35.6°F2.0°C 95% 5.0 mph ENE8.0 kmh ENE 13.0 mph20.9 kmh 29.92 in1013.2 mb 0.00 in0.0 mm 0.00 in0.0 mm 0.39 in9.9 mm
07:50 AM 36.9°F2.7°C 35.6°F2.0°C 95% 4.0 mph ENE6.4 kmh ENE 10.0 mph16.1 kmh 29.92 in1013.2 mb 0.00 in0.0 mm 0.00 in0.0 mm 0.39 in9.9 mm
07:52 AM 36.9°F2.7°C 35.6°F2.0°C 95% 4.0 mph ENE6.4 kmh ENE 10.0 mph16.1 kmh 29.92 in1013.2 mb 0.00 in0.0 mm 0.00 in0.0 mm 0.39 in9.9 mm
07:54 AM 36.9°F2.7°C 35.6°F2.0°C 95% 4.0 mph ENE6.4 kmh ENE 10.0 mph16.1 kmh 29.92 in1013.2 mb 0.00 in0.0 mm 0.00 in0.0 mm 0.39 in9.9 mm
07:56 AM 36.9°F2.7°C 35.6°F2.0°C 95% 4.0 mph ENE6.4 kmh ENE 10.0 mph16.1 kmh 29.92 in1013.2 mb 0.00 in0.0 mm 0.00 in0.0 mm 0.39 in9.9 mm
07:58 AM 36.9°F2.7°C 35.6°F2.0°C 95% 4.0 mph ENE6.4 kmh ENE 11.0 mph17.7 kmh 29.92 in1013.2 mb 0.00 in0.0 mm 0.00 in0.0 mm 0.39 in9.9 mm
08:00 AM 36.9°F2.7°C 35.6°F2.0°C 95% 5.0 mph ENE8.0 kmh ENE 11.0 mph17.7 kmh 29.92 in1013.2 mb 0.00 in0.0 mm 0.00 in0.0 mm 0.39 in9.9 mm
08:02 AM 36.9°F2.7°C 35.6°F2.0°C 95% 5.0 mph ENE8.0 kmh ENE 11.0 mph17.7 kmh 29.92 in1013.2 mb 0.00 in0.0 mm 0.00 in0.0 mm 0.39 in9.9 mm
08:04 AM 36.9°F2.7°C 35.6°F2.0°C 95% 6.0 mph ENE9.7 kmh ENE 11.0 mph17.7 kmh 29.92 in1013.2 mb 0.00 in0.0 mm 0.00 in0.0 mm 0.39 in9.9 mm
08:06 AM 36.9°F2.7°C 35.6°F2.0°C 95% 6.0 mph ENE9.7 kmh ENE 13.0 mph20.9 kmh 29.92 in1013.2 mb 0.00 in0.0 mm 0.00 in0.0 mm 0.39 in9.9 mm
08:08 AM 36.9°F2.7°C 35.6°F2.0°C 95% 6.0 mph ENE9.7 kmh ENE 13.0 mph20.9 kmh 29.92 in1013.2 mb 0.00 in0.0 mm 0.00 in0.0 mm 0.39 in9.9 mm
08:10 AM 36.9°F2.7°C 35.6°F2.0°C 95% 6.0 mph ENE9.7 kmh ENE 13.0 mph20.9 kmh 29.92 in1013.2 mb 0.00 in0.0 mm 0.00 in0.0 mm 0.39 in9.9 mm
08:12 AM 36.9°F2.7°C 35.6°F2.0°C 95% 6.0 mph ENE9.7 kmh ENE 13.0 mph20.9 kmh 29.92 in1013.2 mb 0.00 in0.0 mm 0.00 in0.0 mm 0.39 in9.9 mm
08:14 AM 36.9°F2.7°C 35.6°F2.0°C 95% 5.0 mph ENE8.0 kmh ENE 13.0 mph20.9 kmh 29.92 in1013.2 mb 0.00 in0.0 mm 0.00 in0.0 mm 0.39 in9.9 mm
08:16 AM 36.9°F2.7°C 35.6°F2.0°C 95% 4.0 mph ENE6.4 kmh ENE 10.0 mph16.1 kmh 29.92 in1013.2 mb 0.00 in0.0 mm 0.00 in0.0 mm 0.39 in9.9 mm
08:18 AM 36.9°F2.7°C 35.6°F2.0°C 95% 5.0 mph ENE8.0 kmh ENE 10.0 mph16.1 kmh 29.92 in1013.2 mb 0.00 in0.0 mm 0.00 in0.0 mm 0.39 in9.9 mm
08:20 AM 36.9°F2.7°C 35.6°F2.0°C 95% 5.0 mph ENE8.0 kmh ENE 10.0 mph16.1 kmh 29.91 in1012.9 mb 0.00 in0.0 mm 0.00 in0.0 mm 0.39 in9.9 mm
08:22 AM 36.9°F2.7°C 35.6°F2.0°C 95% 5.0 mph ENE8.0 kmh ENE 13.0 mph20.9 kmh 29.91 in1012.9 mb 0.00 in0.0 mm 0.00 in0.0 mm 0.39 in9.9 mm
08:24 AM 36.9°F2.7°C 35.6°F2.0°C 95% 6.0 mph ENE9.7 kmh ENE 13.0 mph20.9 kmh 29.92 in1013.2 mb 0.00 in0.0 mm 0.00 in0.0 mm 0.39 in9.9 mm
08:26 AM 36.9°F2.7°C 35.6°F2.0°C 95% 6.0 mph ENE9.7 kmh ENE 13.0 mph20.9 kmh 29.92 in1013.2 mb 0.00 in0.0 mm 0.00 in0.0 mm 0.39 in9.9 mm
08:28 AM 36.9°F2.7°C 35.6°F2.0°C 95% 6.0 mph ENE9.7 kmh ENE 13.0 mph20.9 kmh 29.92 in1013.2 mb 0.00 in0.0 mm 0.00 in0.0 mm 0.39 in9.9 mm
08:30 AM 36.9°F2.7°C 35.6°F2.0°C 95% 6.0 mph ENE9.7 kmh ENE 13.0 mph20.9 kmh 29.92 in1013.2 mb 0.00 in0.0 mm 0.00 in0.0 mm 0.39 in9.9 mm
08:32 AM 36.9°F2.7°C 35.6°F2.0°C 95% 5.0 mph ENE8.0 kmh ENE 13.0 mph20.9 kmh 29.92 in1013.2 mb 0.00 in0.0 mm 0.00 in0.0 mm 0.39 in9.9 mm
08:34 AM 36.9°F2.7°C 35.6°F2.0°C 95% 5.0 mph ENE8.0 kmh ENE 13.0 mph20.9 kmh 29.91 in1012.9 mb 0.00 in0.0 mm 0.00 in0.0 mm 0.39 in9.9 mm
08:36 AM 37.0°F2.8°C 35.7°F2.1°C 95% 5.0 mph E8.0 kmh E 13.0 mph20.9 kmh 29.91 in1012.9 mb 0.00 in0.0 mm 0.00 in0.0 mm 0.39 in9.9 mm
08:38 AM 37.0°F2.8°C 35.7°F2.1°C 95% 6.0 mph E9.7 kmh E 12.0 mph19.3 kmh 29.91 in1012.9 mb 0.00 in0.0 mm 0.00 in0.0 mm 0.39 in9.9 mm
08:40 AM 37.0°F2.8°C 35.7°F2.1°C 95% 6.0 mph ENE9.7 kmh ENE 13.0 mph20.9 kmh 29.91 in1012.9 mb 0.00 in0.0 mm 0.00 in0.0 mm 0.39 in9.9 mm
08:42 AM 37.0°F2.8°C 35.7°F2.1°C 95% 7.0 mph E11.3 kmh E 13.0 mph20.9 kmh 29.91 in1012.9 mb 0.00 in0.0 mm 0.00 in0.0 mm 0.39 in9.9 mm
08:44 AM 37.0°F2.8°C 35.7°F2.1°C 95% 7.0 mph E11.3 kmh E 13.0 mph20.9 kmh 29.91 in1012.9 mb 0.00 in0.0 mm 0.00 in0.0 mm 0.39 in9.9 mm
08:46 AM 37.0°F2.8°C 35.7°F2.1°C 95% 7.0 mph E11.3 kmh E 13.0 mph20.9 kmh 29.91 in1012.9 mb 0.00 in0.0 mm 0.00 in0.0 mm 0.39 in9.9 mm
08:48 AM 37.0°F2.8°C 35.7°F2.1°C 95% 7.0 mph E11.3 kmh E 13.0 mph20.9 kmh 29.91 in1012.9 mb 0.00 in0.0 mm 0.00 in0.0 mm 0.39 in9.9 mm
08:50 AM 37.0°F2.8°C 35.7°F2.1°C 95% 7.0 mph E11.3 kmh E 15.0 mph24.1 kmh 29.90 in1012.5 mb 0.00 in0.0 mm 0.00 in0.0 mm 0.39 in9.9 mm
08:52 AM 37.0°F2.8°C 35.7°F2.1°C 95% 7.0 mph E11.3 kmh E 16.0 mph25.7 kmh 29.91 in1012.9 mb 0.00 in0.0 mm 0.00 in0.0 mm 0.39 in9.9 mm
08:54 AM 37.0°F2.8°C 35.7°F2.1°C 95% 8.0 mph E12.9 kmh E 16.0 mph25.7 kmh 29.90 in1012.5 mb 0.00 in0.0 mm 0.00 in0.0 mm 0.39 in9.9 mm
08:56 AM 37.0°F2.8°C 35.7°F2.1°C 95% 8.0 mph ENE12.9 kmh ENE 16.0 mph25.7 kmh 29.90 in1012.5 mb 0.00 in0.0 mm 0.00 in0.0 mm 0.39 in9.9 mm
08:58 AM 37.0°F2.8°C 35.7°F2.1°C 95% 8.0 mph ENE12.9 kmh ENE 16.0 mph25.7 kmh 29.89 in1012.2 mb 0.00 in0.0 mm 0.00 in0.0 mm 0.39 in9.9 mm
09:00 AM 37.0°F2.8°C 35.7°F2.1°C 95% 8.0 mph ENE12.9 kmh ENE 19.0 mph30.6 kmh 29.88 in1011.9 mb 0.00 in0.0 mm 0.00 in0.0 mm 0.39 in9.9 mm
09:02 AM 37.0°F2.8°C 35.7°F2.1°C 95% 8.0 mph ENE12.9 kmh ENE 19.0 mph30.6 kmh 29.87 in1011.5 mb 0.00 in0.0 mm 0.00 in0.0 mm 0.39 in9.9 mm
09:04 AM 36.9°F2.7°C 35.6°F2.0°C 95% 9.0 mph ENE14.5 kmh ENE 19.0 mph30.6 kmh 29.86 in1011.2 mb 0.00 in0.0 mm 0.00 in0.0 mm 0.39 in9.9 mm
09:06 AM 36.9°F2.7°C 35.6°F2.0°C 95% 9.0 mph ENE14.5 kmh ENE 19.0 mph30.6 kmh 29.85 in1010.8 mb 0.00 in0.0 mm 0.00 in0.0 mm 0.39 in9.9 mm
09:08 AM 36.9°F2.7°C 35.6°F2.0°C 95% 10.0 mph ENE16.1 kmh ENE 19.0 mph30.6 kmh 29.84 in1010.5 mb 0.00 in0.0 mm 0.00 in0.0 mm 0.39 in9.9 mm
09:10 AM 36.9°F2.7°C 35.6°F2.0°C 95% 10.0 mph ENE16.1 kmh ENE 19.0 mph30.6 kmh 29.82 in1009.8 mb 0.00 in0.0 mm 0.00 in0.0 mm 0.39 in9.9 mm
09:12 AM 36.9°F2.7°C 35.6°F2.0°C 95% 9.0 mph ENE14.5 kmh ENE 19.0 mph30.6 kmh 29.81 in1009.5 mb 0.00 in0.0 mm 0.00 in0.0 mm 0.39 in9.9 mm
09:14 AM 36.9°F2.7°C 35.6°F2.0°C 95% 9.0 mph ENE14.5 kmh ENE 20.0 mph32.2 kmh 29.81 in1009.5 mb 0.00 in0.0 mm 0.00 in0.0 mm 0.39 in9.9 mm
09:16 AM 36.9°F2.7°C 35.6°F2.0°C 95% 9.0 mph ENE14.5 kmh ENE 20.0 mph32.2 kmh 29.81 in1009.5 mb 0.00 in0.0 mm 0.00 in0.0 mm 0.39 in9.9 mm
09:18 AM 36.9°F2.7°C 35.6°F2.0°C 95% 9.0 mph ENE14.5 kmh ENE 20.0 mph32.2 kmh 29.81 in1009.5 mb 0.00 in0.0 mm 0.00 in0.0 mm 0.39 in9.9 mm
09:20 AM 36.9°F2.7°C 35.6°F2.0°C 95% 9.0 mph ENE14.5 kmh ENE 20.0 mph32.2 kmh 29.81 in1009.5 mb 0.00 in0.0 mm 0.00 in0.0 mm 0.39 in9.9 mm
09:22 AM 36.9°F2.7°C 35.6°F2.0°C 95% 10.0 mph ENE16.1 kmh ENE 20.0 mph32.2 kmh 29.81 in1009.5 mb 0.00 in0.0 mm 0.00 in0.0 mm 0.39 in9.9 mm
09:24 AM 36.9°F2.7°C 35.6°F2.0°C 95% 9.0 mph ENE14.5 kmh ENE 20.0 mph32.2 kmh 29.81 in1009.5 mb 0.00 in0.0 mm 0.00 in0.0 mm 0.39 in9.9 mm
09:26 AM 36.9°F2.7°C 35.6°F2.0°C 95% 9.0 mph ENE14.5 kmh ENE 20.0 mph32.2 kmh 29.82 in1009.8 mb 0.00 in0.0 mm 0.00 in0.0 mm 0.39 in9.9 mm
09:28 AM 36.9°F2.7°C 35.6°F2.0°C 95% 8.0 mph ENE12.9 kmh ENE 20.0 mph32.2 kmh 29.82 in1009.8 mb 0.00 in0.0 mm 0.00 in0.0 mm 0.39 in9.9 mm
09:30 AM 36.9°F2.7°C 35.6°F2.0°C 95% 8.0 mph ENE12.9 kmh ENE 18.0 mph29.0 kmh 29.82 in1009.8 mb 0.00 in0.0 mm 0.00 in0.0 mm 0.39 in9.9 mm
09:32 AM 36.9°F2.7°C 35.6°F2.0°C 95% 8.0 mph ENE12.9 kmh ENE 18.0 mph29.0 kmh 29.83 in1010.2 mb 0.00 in0.0 mm 0.00 in0.0 mm 0.39 in9.9 mm
09:34 AM 37.0°F2.8°C 35.7°F2.1°C 95% 7.0 mph ENE11.3 kmh ENE 15.0 mph24.1 kmh 29.83 in1010.2 mb 0.00 in0.0 mm 0.00 in0.0 mm 0.39 in9.9 mm
09:36 AM 37.0°F2.8°C 35.7°F2.1°C 95% 7.0 mph ENE11.3 kmh ENE 16.0 mph25.7 kmh 29.84 in1010.5 mb 0.00 in0.0 mm 0.00 in0.0 mm 0.39 in9.9 mm
09:38 AM 37.0°F2.8°C 35.7°F2.1°C 95% 8.0 mph E12.9 kmh E 16.0 mph25.7 kmh 29.85 in1010.8 mb 0.00 in0.0 mm 0.00 in0.0 mm 0.39 in9.9 mm
09:40 AM 37.0°F2.8°C 35.7°F2.1°C 95% 8.0 mph E12.9 kmh E 17.0 mph27.4 kmh 29.86 in1011.2 mb 0.00 in0.0 mm 0.00 in0.0 mm 0.39 in9.9 mm
09:42 AM 37.0°F2.8°C 35.7°F2.1°C 95% 8.0 mph E12.9 kmh E 17.0 mph27.4 kmh 29.86 in1011.2 mb 0.00 in0.0 mm 0.00 in0.0 mm 0.39 in9.9 mm
09:44 AM 37.0°F2.8°C 35.7°F2.1°C 95% 8.0 mph ENE12.9 kmh ENE 17.0 mph27.4 kmh 29.86 in1011.2 mb 0.00 in0.0 mm 0.00 in0.0 mm 0.39 in9.9 mm
09:46 AM 37.0°F2.8°C 35.7°F2.1°C 95% 8.0 mph ENE12.9 kmh ENE 17.0 mph27.4 kmh 29.86 in1011.2 mb 0.00 in0.0 mm 0.00 in0.0 mm 0.39 in9.9 mm
09:48 AM 37.0°F2.8°C 35.7°F2.1°C 95% 9.0 mph ENE14.5 kmh ENE 18.0 mph29.0 kmh 29.85 in1010.8 mb 0.00 in0.0 mm 0.00 in0.0 mm 0.39 in9.9 mm
09:50 AM 36.9°F2.7°C 35.6°F2.0°C 95% 8.0 mph ENE12.9 kmh ENE 18.0 mph29.0 kmh 29.85 in1010.8 mb 0.00 in0.0 mm 0.00 in0.0 mm 0.39 in9.9 mm
09:52 AM 36.9°F2.7°C 35.6°F2.0°C 95% 8.0 mph ENE12.9 kmh ENE 18.0 mph29.0 kmh 29.86 in1011.2 mb 0.00 in0.0 mm 0.00 in0.0 mm 0.39 in9.9 mm
09:54 AM 36.9°F2.7°C 35.6°F2.0°C 95% 9.0 mph ENE14.5 kmh ENE 18.0 mph29.0 kmh 29.86 in1011.2 mb 0.00 in0.0 mm 0.00 in0.0 mm 0.39 in9.9 mm
09:56 AM 36.9°F2.7°C 35.6°F2.0°C 95% 8.0 mph ENE12.9 kmh ENE 18.0 mph29.0 kmh 29.86 in1011.2 mb 0.00 in0.0 mm 0.00 in0.0 mm 0.39 in9.9 mm
09:58 AM 37.0°F2.8°C 35.7°F2.1°C 95% 8.0 mph ENE12.9 kmh ENE 16.0 mph25.7 kmh 29.87 in1011.5 mb 0.00 in0.0 mm 0.00 in0.0 mm 0.39 in9.9 mm
10:00 AM 37.0°F2.8°C 35.7°F2.1°C 95% 8.0 mph ENE12.9 kmh ENE 16.0 mph25.7 kmh 29.87 in1011.5 mb 0.00 in0.0 mm 0.00 in0.0 mm 0.39 in9.9 mm
10:02 AM 37.0°F2.8°C 35.7°F2.1°C 95% 7.0 mph ENE11.3 kmh ENE 15.0 mph24.1 kmh 29.87 in1011.5 mb 0.00 in0.0 mm 0.00 in0.0 mm 0.39 in9.9 mm
10:04 AM 37.0°F2.8°C 35.7°F2.1°C 95% 7.0 mph ENE11.3 kmh ENE 13.0 mph20.9 kmh 29.88 in1011.9 mb 0.00 in0.0 mm 0.00 in0.0 mm 0.39 in9.9 mm
10:06 AM 37.0°F2.8°C 35.7°F2.1°C 95% 7.0 mph E11.3 kmh E 14.0 mph22.5 kmh 29.89 in1012.2 mb 0.00 in0.0 mm 0.00 in0.0 mm 0.39 in9.9 mm
10:08 AM 37.0°F2.8°C 35.7°F2.1°C 95% 6.0 mph E9.7 kmh E 14.0 mph22.5 kmh 29.89 in1012.2 mb 0.00 in0.0 mm 0.00 in0.0 mm 0.39 in9.9 mm
10:10 AM 37.0°F2.8°C 35.7°F2.1°C 95% 6.0 mph E9.7 kmh E 14.0 mph22.5 kmh 29.89 in1012.2 mb 0.00 in0.0 mm 0.00 in0.0 mm 0.39 in9.9 mm
10:12 AM 37.0°F2.8°C 35.7°F2.1°C 95% 6.0 mph E9.7 kmh E 14.0 mph22.5 kmh 29.89 in1012.2 mb 0.00 in0.0 mm 0.00 in0.0 mm 0.39 in9.9 mm
10:14 AM 37.0°F2.8°C 35.7°F2.1°C 95% 6.0 mph E9.7 kmh E 14.0 mph22.5 kmh 29.89 in1012.2 mb 0.00 in0.0 mm 0.00 in0.0 mm 0.39 in9.9 mm
10:16 AM 37.1°F2.8°C 35.8°F2.1°C 95% 5.0 mph E8.0 kmh E 11.0 mph17.7 kmh 29.90 in1012.5 mb 0.00 in0.0 mm 0.00 in0.0 mm 0.39 in9.9 mm
10:18 AM 37.1°F2.8°C 35.8°F2.1°C 95% 5.0 mph E8.0 kmh E 11.0 mph17.7 kmh 29.90 in1012.5 mb 0.00 in0.0 mm 0.00 in0.0 mm 0.39 in9.9 mm
10:20 AM 37.1°F2.8°C 35.8°F2.1°C 95% 5.0 mph E8.0 kmh E 11.0 mph17.7 kmh 29.90 in1012.5 mb 0.00 in0.0 mm 0.00 in0.0 mm 0.39 in9.9 mm
10:22 AM 37.1°F2.8°C 35.8°F2.1°C 95% 4.0 mph E6.4 kmh E 11.0 mph17.7 kmh 29.91 in1012.9 mb 0.00 in0.0 mm 0.00 in0.0 mm 0.39 in9.9 mm
10:24 AM 37.1°F2.8°C 35.8°F2.1°C 95% 4.0 mph E6.4 kmh E 11.0 mph17.7 kmh 29.91 in1012.9 mb 0.00 in0.0 mm 0.00 in0.0 mm 0.39 in9.9 mm
10:26 AM 37.1°F2.8°C 35.8°F2.1°C 95% 4.0 mph E6.4 kmh E 11.0 mph17.7 kmh 29.91 in1012.9 mb 0.00 in0.0 mm 0.00 in0.0 mm 0.39 in9.9 mm
10:28 AM 37.1°F2.8°C 35.8°F2.1°C 95% 4.0 mph E6.4 kmh E 12.0 mph19.3 kmh 29.91 in1012.9 mb 0.00 in0.0 mm 0.00 in0.0 mm 0.39 in9.9 mm
10:30 AM 37.1°F2.8°C 35.8°F2.1°C 95% 4.0 mph E6.4 kmh E 12.0 mph19.3 kmh 29.92 in1013.2 mb 0.00 in0.0 mm 0.00 in0.0 mm 0.39 in9.9 mm
10:32 AM 37.1°F2.8°C 35.8°F2.1°C 95% 4.0 mph E6.4 kmh E 12.0 mph19.3 kmh 29.92 in1013.2 mb 0.00 in0.0 mm 0.00 in0.0 mm 0.39 in9.9 mm
10:34 AM 37.1°F2.8°C 35.8°F2.1°C 95% 4.0 mph E6.4 kmh E 12.0 mph19.3 kmh 29.92 in1013.2 mb 0.00 in0.0 mm 0.00 in0.0 mm 0.39 in9.9 mm
10:36 AM 37.1°F2.8°C 35.8°F2.1°C 95% 4.0 mph E6.4 kmh E 12.0 mph19.3 kmh 29.92 in1013.2 mb 0.00 in0.0 mm 0.00 in0.0 mm 0.39 in9.9 mm
10:38 AM 37.1°F2.8°C 35.8°F2.1°C 95% 4.0 mph E6.4 kmh E 12.0 mph19.3 kmh 29.93 in1013.5 mb 0.00 in0.0 mm 0.00 in0.0 mm 0.39 in9.9 mm
10:40 AM 37.1°F2.8°C 35.8°F2.1°C 95% 3.0 mph E4.8 kmh E 12.0 mph19.3 kmh 29.93 in1013.5 mb 0.00 in0.0 mm 0.00 in0.0 mm 0.39 in9.9 mm
10:42 AM 37.1°F2.8°C 35.8°F2.1°C 95% 4.0 mph E6.4 kmh E 12.0 mph19.3 kmh 29.93 in1013.5 mb 0.00 in0.0 mm 0.00 in0.0 mm 0.39 in9.9 mm
10:44 AM 37.1°F2.8°C 35.8°F2.1°C 95% 4.0 mph E6.4 kmh E 12.0 mph19.3 kmh 29.93 in1013.5 mb 0.00 in0.0 mm 0.00 in0.0 mm 0.39 in9.9 mm
10:46 AM 37.1°F2.8°C 35.8°F2.1°C 95% 4.0 mph E6.4 kmh E 12.0 mph19.3 kmh 29.92 in1013.2 mb 0.00 in0.0 mm 0.00 in0.0 mm 0.39 in9.9 mm
10:48 AM 37.1°F2.8°C 35.8°F2.1°C 95% 3.0 mph E4.8 kmh E 9.0 mph14.5 kmh 29.91 in1012.9 mb 0.00 in0.0 mm 0.00 in0.0 mm 0.39 in9.9 mm
10:50 AM 37.1°F2.8°C 35.8°F2.1°C 95% 4.0 mph ENE6.4 kmh ENE 10.0 mph16.1 kmh 29.90 in1012.5 mb 0.00 in0.0 mm 0.00 in0.0 mm 0.39 in9.9 mm
10:52 AM 37.1°F2.8°C 35.8°F2.1°C 95% 5.0 mph ENE8.0 kmh ENE 12.0 mph19.3 kmh 29.90 in1012.5 mb 0.00 in0.0 mm 0.00 in0.0 mm 0.39 in9.9 mm
10:54 AM 37.1°F2.8°C 35.8°F2.1°C 95% 5.0 mph ENE8.0 kmh ENE 12.0 mph19.3 kmh 29.91 in1012.9 mb 0.00 in0.0 mm 0.00 in0.0 mm 0.39 in9.9 mm
10:56 AM 37.1°F2.8°C 35.8°F2.1°C 95% 5.0 mph ENE8.0 kmh ENE 15.0 mph24.1 kmh 29.91 in1012.9 mb 0.00 in0.0 mm 0.00 in0.0 mm 0.39 in9.9 mm
10:58 AM 37.1°F2.8°C 35.8°F2.1°C 95% 6.0 mph ENE9.7 kmh ENE 15.0 mph24.1 kmh 29.91 in1012.9 mb 0.00 in0.0 mm 0.00 in0.0 mm 0.39 in9.9 mm
11:00 AM 37.1°F2.8°C 35.8°F2.1°C 95% 5.0 mph ENE8.0 kmh ENE 15.0 mph24.1 kmh 29.90 in1012.5 mb 0.00 in0.0 mm 0.00 in0.0 mm 0.39 in9.9 mm
11:02 AM 37.1°F2.8°C 35.8°F2.1°C 95% 5.0 mph ENE8.0 kmh ENE 15.0 mph24.1 kmh 29.88 in1011.9 mb 0.00 in0.0 mm 0.00 in0.0 mm 0.39 in9.9 mm
11:04 AM 37.1°F2.8°C 35.8°F2.1°C 95% 5.0 mph ENE8.0 kmh ENE 15.0 mph24.1 kmh 29.88 in1011.9 mb 0.00 in0.0 mm 0.00 in0.0 mm 0.39 in9.9 mm
11:06 AM 37.1°F2.8°C 35.8°F2.1°C 95% 5.0 mph ENE8.0 kmh ENE 12.0 mph19.3 kmh 29.88 in1011.9 mb 0.00 in0.0 mm 0.00 in0.0 mm 0.39 in9.9 mm
11:08 AM 37.1°F2.8°C 35.8°F2.1°C 95% 5.0 mph ENE8.0 kmh ENE 12.0 mph19.3 kmh 29.87 in1011.5 mb 0.00 in0.0 mm 0.00 in0.0 mm 0.39 in9.9 mm
11:10 AM 37.1°F2.8°C 35.8°F2.1°C 95% 7.0 mph ENE11.3 kmh ENE 16.0 mph25.7 kmh 29.86 in1011.2 mb 0.00 in0.0 mm 0.00 in0.0 mm 0.39 in9.9 mm
11:12 AM 37.1°F2.8°C 35.8°F2.1°C 95% 7.0 mph E11.3 kmh E 16.0 mph25.7 kmh 29.85 in1010.8 mb 0.00 in0.0 mm 0.00 in0.0 mm 0.39 in9.9 mm
11:14 AM 37.1°F2.8°C 35.8°F2.1°C 95% 8.0 mph ENE12.9 kmh ENE 16.0 mph25.7 kmh 29.84 in1010.5 mb 0.00 in0.0 mm 0.00 in0.0 mm 0.39 in9.9 mm
11:16 AM 37.1°F2.8°C 35.8°F2.1°C 95% 8.0 mph E12.9 kmh E 16.0 mph25.7 kmh 29.83 in1010.2 mb 0.00 in0.0 mm 0.00 in0.0 mm 0.39 in9.9 mm
11:18 AM 37.2°F2.9°C 35.9°F2.2°C 95% 8.0 mph E12.9 kmh E 16.0 mph25.7 kmh 29.82 in1009.8 mb 0.00 in0.0 mm 0.00 in0.0 mm 0.39 in9.9 mm
11:20 AM 37.2°F2.9°C 35.9°F2.2°C 95% 9.0 mph E14.5 kmh E 19.0 mph30.6 kmh 29.81 in1009.5 mb 0.00 in0.0 mm 0.00 in0.0 mm 0.39 in9.9 mm
11:22 AM 37.2°F2.9°C 35.9°F2.2°C 95% 9.0 mph E14.5 kmh E 19.0 mph30.6 kmh 29.80 in1009.1 mb 0.00 in0.0 mm 0.00 in0.0 mm 0.39 in9.9 mm
11:24 AM 37.2°F2.9°C 35.9°F2.2°C 95% 9.0 mph E14.5 kmh E 19.0 mph30.6 kmh 29.80 in1009.1 mb 0.00 in0.0 mm 0.00 in0.0 mm 0.39 in9.9 mm
11:26 AM 37.2°F2.9°C 35.9°F2.2°C 95% 9.0 mph E14.5 kmh E 19.0 mph30.6 kmh 29.79 in1008.8 mb 0.00 in0.0 mm 0.00 in0.0 mm 0.39 in9.9 mm
11:28 AM 37.2°F2.9°C 35.9°F2.2°C 95% 9.0 mph E14.5 kmh E 19.0 mph30.6 kmh 29.79 in1008.8 mb 0.00 in0.0 mm 0.00 in0.0 mm 0.39 in9.9 mm
11:30 AM 37.2°F2.9°C 35.9°F2.2°C 95% 9.0 mph E14.5 kmh E 17.0 mph27.4 kmh 29.79 in1008.8 mb 0.00 in0.0 mm 0.00 in0.0 mm 0.39 in9.9 mm
11:32 AM 37.2°F2.9°C 35.9°F2.2°C 95% 8.0 mph E12.9 kmh E 17.0 mph27.4 kmh 29.79 in1008.8 mb 0.00 in0.0 mm 0.00 in0.0 mm 0.39 in9.9 mm
11:34 AM 37.2°F2.9°C 35.9°F2.2°C 95% 8.0 mph ENE12.9 kmh ENE 17.0 mph27.4 kmh 29.80 in1009.1 mb 0.00 in0.0 mm 0.00 in0.0 mm 0.39 in9.9 mm
11:36 AM 37.2°F2.9°C 35.9°F2.2°C 95% 7.0 mph ENE11.3 kmh ENE 14.0 mph22.5 kmh 29.80 in1009.1 mb 0.00 in0.0 mm 0.00 in0.0 mm 0.39 in9.9 mm
11:38 AM 37.2°F2.9°C 35.9°F2.2°C 95% 7.0 mph ENE11.3 kmh ENE 15.0 mph24.1 kmh 29.81 in1009.5 mb 0.00 in0.0 mm 0.00 in0.0 mm 0.39 in9.9 mm
11:40 AM 37.2°F2.9°C 35.9°F2.2°C 95% 7.0 mph ENE11.3 kmh ENE 15.0 mph24.1 kmh 29.80 in1009.1 mb 0.00 in0.0 mm 0.00 in0.0 mm 0.39 in9.9 mm
11:42 AM 37.2°F2.9°C 35.9°F2.2°C 95% 6.0 mph ENE9.7 kmh ENE 15.0 mph24.1 kmh 29.80 in1009.1 mb 0.00 in0.0 mm 0.00 in0.0 mm 0.39 in9.9 mm
11:44 AM 37.2°F2.9°C 35.9°F2.2°C 95% 6.0 mph ENE9.7 kmh ENE 15.0 mph24.1 kmh 29.80 in1009.1 mb 0.00 in0.0 mm 0.00 in0.0 mm 0.39 in9.9 mm
11:46 AM 37.2°F2.9°C 35.9°F2.2°C 95% 7.0 mph ENE11.3 kmh ENE 15.0 mph24.1 kmh 29.79 in1008.8 mb 0.00 in0.0 mm 0.00 in0.0 mm 0.39 in9.9 mm
11:48 AM 37.2°F2.9°C 35.9°F2.2°C 95% 7.0 mph ENE11.3 kmh ENE 17.0 mph27.4 kmh 29.78 in1008.5 mb 0.00 in0.0 mm 0.00 in0.0 mm 0.39 in9.9 mm
11:50 AM 37.1°F2.8°C 35.8°F2.1°C 95% 8.0 mph ENE12.9 kmh ENE 20.0 mph32.2 kmh 29.78 in1008.5 mb 0.00 in0.0 mm 0.00 in0.0 mm 0.39 in9.9 mm
11:52 AM 37.1°F2.8°C 35.8°F2.1°C 95% 9.0 mph ENE14.5 kmh ENE 20.0 mph32.2 kmh 29.78 in1008.5 mb 0.00 in0.0 mm 0.00 in0.0 mm 0.39 in9.9 mm
11:54 AM 37.1°F2.8°C 35.8°F2.1°C 95% 9.0 mph ENE14.5 kmh ENE 20.0 mph32.2 kmh 29.79 in1008.8 mb 0.00 in0.0 mm 0.00 in0.0 mm 0.39 in9.9 mm
11:56 AM 37.1°F2.8°C 35.8°F2.1°C 95% 8.0 mph ENE12.9 kmh ENE 20.0 mph32.2 kmh 29.80 in1009.1 mb 0.00 in0.0 mm 0.00 in0.0 mm 0.39 in9.9 mm
11:58 AM 37.1°F2.8°C 35.8°F2.1°C 95% 8.0 mph ENE12.9 kmh ENE 20.0 mph32.2 kmh 29.80 in1009.1 mb 0.00 in0.0 mm 0.00 in0.0 mm 0.39 in9.9 mm
12:00 PM 37.2°F2.9°C 35.9°F2.2°C 95% 7.0 mph E11.3 kmh E 17.0 mph27.4 kmh 29.80 in1009.1 mb 0.00 in0.0 mm 0.00 in0.0 mm 0.39 in9.9 mm
12:02 PM 37.1°F2.8°C 35.8°F2.1°C 95% 8.0 mph E12.9 kmh E 16.0 mph25.7 kmh 29.80 in1009.1 mb 0.00 in0.0 mm 0.00 in0.0 mm 0.39 in9.9 mm
12:04 PM 37.1°F2.8°C 35.8°F2.1°C 95% 8.0 mph ENE12.9 kmh ENE 16.0 mph25.7 kmh 29.80 in1009.1 mb 0.00 in0.0 mm 0.00 in0.0 mm 0.39 in9.9 mm
12:06 PM 37.1°F2.8°C 35.8°F2.1°C 95% 8.0 mph ENE12.9 kmh ENE 16.0 mph25.7 kmh 29.79 in1008.8 mb 0.00 in0.0 mm 0.00 in0.0 mm 0.39 in9.9 mm
12:08 PM 37.1°F2.8°C 35.8°F2.1°C 95% 8.0 mph ENE12.9 kmh ENE 17.0 mph27.4 kmh 29.78 in1008.5 mb 0.00 in0.0 mm 0.00 in0.0 mm 0.39 in9.9 mm
12:10 PM 37.1°F2.8°C 35.8°F2.1°C 95% 8.0 mph ENE12.9 kmh ENE 17.0 mph27.4 kmh 29.78 in1008.5 mb 0.00 in0.0 mm 0.00 in0.0 mm 0.39 in9.9 mm
12:12 PM 37.1°F2.8°C 35.8°F2.1°C 95% 8.0 mph ENE12.9 kmh ENE 17.0 mph27.4 kmh 29.77 in1008.1 mb 0.00 in0.0 mm 0.00 in0.0 mm 0.39 in9.9 mm
12:14 PM 37.0°F2.8°C 35.7°F2.1°C 95% 9.0 mph ENE14.5 kmh ENE 17.0 mph27.4 kmh 29.77 in1008.1 mb 0.00 in0.0 mm 0.00 in0.0 mm 0.39 in9.9 mm
12:16 PM 37.0°F2.8°C 35.7°F2.1°C 95% 9.0 mph ENE14.5 kmh ENE 17.0 mph27.4 kmh 29.77 in1008.1 mb 0.00 in0.0 mm 0.00 in0.0 mm 0.39 in9.9 mm
12:18 PM 37.0°F2.8°C 35.7°F2.1°C 95% 9.0 mph ENE14.5 kmh ENE 17.0 mph27.4 kmh 29.77 in1008.1 mb 0.00 in0.0 mm 0.00 in0.0 mm 0.39 in9.9 mm
12:20 PM 36.9°F2.7°C 35.6°F2.0°C 95% 9.0 mph ENE14.5 kmh ENE 23.0 mph37.0 kmh 29.77 in1008.1 mb 0.00 in0.0 mm 0.00 in0.0 mm 0.39 in9.9 mm
12:22 PM 36.9°F2.7°C 35.6°F2.0°C 95% 10.0 mph ENE16.1 kmh ENE 23.0 mph37.0 kmh 29.77 in1008.1 mb 0.00 in0.0 mm 0.00 in0.0 mm 0.39 in9.9 mm
12:24 PM 36.9°F2.7°C 35.6°F2.0°C 95% 9.0 mph ENE14.5 kmh ENE 23.0 mph37.0 kmh 29.78 in1008.5 mb 0.00 in0.0 mm 0.00 in0.0 mm 0.39 in9.9 mm
12:26 PM 36.9°F2.7°C 35.6°F2.0°C 95% 10.0 mph ENE16.1 kmh ENE 23.0 mph37.0 kmh 29.77 in1008.1 mb 0.00 in0.0 mm 0.00 in0.0 mm 0.39 in9.9 mm
12:28 PM 37.0°F2.8°C 35.7°F2.1°C 95% 10.0 mph ENE16.1 kmh ENE 24.0 mph38.6 kmh 29.77 in1008.1 mb 0.00 in0.0 mm 0.00 in0.0 mm 0.39 in9.9 mm
12:30 PM 37.0°F2.8°C 35.7°F2.1°C 95% 9.0 mph ENE14.5 kmh ENE 24.0 mph38.6 kmh 29.76 in1007.8 mb 0.00 in0.0 mm 0.00 in0.0 mm 0.39 in9.9 mm
12:32 PM 37.0°F2.8°C 35.7°F2.1°C 95% 9.0 mph ENE14.5 kmh ENE 24.0 mph38.6 kmh 29.75 in1007.5 mb 0.00 in0.0 mm 0.00 in0.0 mm 0.39 in9.9 mm
12:34 PM 37.0°F2.8°C 35.7°F2.1°C 95% 9.0 mph ENE14.5 kmh ENE 24.0 mph38.6 kmh 29.75 in1007.5 mb 0.00 in0.0 mm 0.00 in0.0 mm 0.39 in9.9 mm
12:36 PM 37.0°F2.8°C 35.7°F2.1°C 95% 10.0 mph ENE16.1 kmh ENE 24.0 mph38.6 kmh 29.75 in1007.5 mb 0.00 in0.0 mm 0.00 in0.0 mm 0.39 in9.9 mm
12:38 PM 37.0°F2.8°C 35.7°F2.1°C 95% 10.0 mph ENE16.1 kmh ENE 21.0 mph33.8 kmh 29.75 in1007.5 mb 0.00 in0.0 mm 0.00 in0.0 mm 0.39 in9.9 mm
12:40 PM 37.0°F2.8°C 35.7°F2.1°C 95% 10.0 mph ENE16.1 kmh ENE 21.0 mph33.8 kmh 29.75 in1007.5 mb 0.00 in0.0 mm 0.00 in0.0 mm 0.39 in9.9 mm
12:42 PM 37.0°F2.8°C 35.7°F2.1°C 95% 10.0 mph ENE16.1 kmh ENE 21.0 mph33.8 kmh 29.76 in1007.8 mb 0.00 in0.0 mm 0.00 in0.0 mm 0.39 in9.9 mm
12:44 PM 37.0°F2.8°C 35.7°F2.1°C 95% 9.0 mph ENE14.5 kmh ENE 21.0 mph33.8 kmh 29.76 in1007.8 mb 0.00 in0.0 mm 0.00 in0.0 mm 0.39 in9.9 mm
12:46 PM 37.1°F2.8°C 35.8°F2.1°C 95% 8.0 mph ENE12.9 kmh ENE 21.0 mph33.8 kmh 29.75 in1007.5 mb 0.00 in0.0 mm 0.00 in0.0 mm 0.39 in9.9 mm
12:48 PM 37.1°F2.8°C 35.8°F2.1°C 95% 7.0 mph ENE11.3 kmh ENE 21.0 mph33.8 kmh 29.75 in1007.5 mb 0.00 in0.0 mm 0.00 in0.0 mm 0.39 in9.9 mm
12:50 PM 37.1°F2.8°C 35.8°F2.1°C 95% 7.0 mph ENE11.3 kmh ENE 21.0 mph33.8 kmh 29.75 in1007.5 mb 0.00 in0.0 mm 0.00 in0.0 mm 0.39 in9.9 mm
12:52 PM 37.1°F2.8°C 35.8°F2.1°C 95% 6.0 mph ENE9.7 kmh ENE 19.0 mph30.6 kmh 29.74 in1007.1 mb 0.00 in0.0 mm 0.00 in0.0 mm 0.39 in9.9 mm
12:54 PM 37.1°F2.8°C 35.8°F2.1°C 95% 7.0 mph ENE11.3 kmh ENE 19.0 mph30.6 kmh 29.73 in1006.8 mb 0.00 in0.0 mm 0.00 in0.0 mm 0.39 in9.9 mm
12:56 PM 37.1°F2.8°C 35.8°F2.1°C 95% 8.0 mph ENE12.9 kmh ENE 21.0 mph33.8 kmh 29.72 in1006.4 mb 0.00 in0.0 mm 0.00 in0.0 mm 0.39 in9.9 mm
12:58 PM 37.1°F2.8°C 35.8°F2.1°C 95% 9.0 mph ENE14.5 kmh ENE 21.0 mph33.8 kmh 29.72 in1006.4 mb 0.00 in0.0 mm 0.00 in0.0 mm 0.39 in9.9 mm
01:00 PM 37.1°F2.8°C 35.8°F2.1°C 95% 9.0 mph ENE14.5 kmh ENE 21.0 mph33.8 kmh 29.72 in1006.4 mb 0.00 in0.0 mm 0.00 in0.0 mm 0.39 in9.9 mm
01:02 PM 37.1°F2.8°C 35.8°F2.1°C 95% 10.0 mph ENE16.1 kmh ENE 21.0 mph33.8 kmh 29.72 in1006.4 mb 0.00 in0.0 mm 0.00 in0.0 mm 0.39 in9.9 mm
01:04 PM 37.1°F2.8°C 35.8°F2.1°C 95% 11.0 mph ENE17.7 kmh ENE 21.0 mph33.8 kmh 29.72 in1006.4 mb 0.00 in0.0 mm 0.00 in0.0 mm 0.39 in9.9 mm
01:06 PM 37.1°F2.8°C 35.8°F2.1°C 95% 10.0 mph ENE16.1 kmh ENE 21.0 mph33.8 kmh 29.71 in1006.1 mb 0.00 in0.0 mm 0.00 in0.0 mm 0.39 in9.9 mm
01:08 PM 37.1°F2.8°C 35.8°F2.1°C 95% 10.0 mph ENE16.1 kmh ENE 21.0 mph33.8 kmh 29.71 in1006.1 mb 0.00 in0.0 mm 0.00 in0.0 mm 0.39 in9.9 mm
01:10 PM 37.2°F2.9°C 35.9°F2.2°C 95% 10.0 mph ENE16.1 kmh ENE 21.0 mph33.8 kmh 29.71 in1006.1 mb 0.00 in0.0 mm 0.00 in0.0 mm 0.39 in9.9 mm
01:12 PM 37.2°F2.9°C 35.9°F2.2°C 95% 9.0 mph ENE14.5 kmh ENE 21.0 mph33.8 kmh 29.71 in1006.1 mb 0.00 in0.0 mm 0.00 in0.0 mm 0.39 in9.9 mm
01:14 PM 37.2°F2.9°C 35.9°F2.2°C 95% 9.0 mph ENE14.5 kmh ENE 21.0 mph33.8 kmh 29.71 in1006.1 mb 0.00 in0.0 mm 0.00 in0.0 mm 0.39 in9.9 mm
01:16 PM 37.3°F2.9°C 36.0°F2.2°C 95% 9.0 mph E14.5 kmh E 15.0 mph24.1 kmh 29.70 in1005.8 mb 0.00 in0.0 mm 0.00 in0.0 mm 0.39 in9.9 mm
01:18 PM 37.3°F2.9°C 36.0°F2.2°C 95% 9.0 mph E14.5 kmh E 18.0 mph29.0 kmh 29.70 in1005.8 mb 0.00 in0.0 mm 0.00 in0.0 mm 0.39 in9.9 mm
01:20 PM 37.3°F2.9°C 36.0°F2.2°C 95% 9.0 mph E14.5 kmh E 18.0 mph29.0 kmh 29.69 in1005.4 mb 0.00 in0.0 mm 0.00 in0.0 mm 0.39 in9.9 mm
01:22 PM 37.3°F2.9°C 36.0°F2.2°C 95% 9.0 mph E14.5 kmh E 18.0 mph29.0 kmh 29.68 in1005.1 mb 0.00 in0.0 mm 0.00 in0.0 mm 0.39 in9.9 mm
01:24 PM 37.3°F2.9°C 36.0°F2.2°C 95% 9.0 mph E14.5 kmh E 18.0 mph29.0 kmh 29.67 in1004.7 mb 0.00 in0.0 mm 0.00 in0.0 mm 0.39 in9.9 mm
01:26 PM 37.3°F2.9°C 36.0°F2.2°C 95% 9.0 mph ENE14.5 kmh ENE 19.0 mph30.6 kmh 29.68 in1005.1 mb 0.00 in0.0 mm 0.00 in0.0 mm 0.39 in9.9 mm
01:28 PM 37.3°F2.9°C 36.0°F2.2°C 95% 10.0 mph ENE16.1 kmh ENE 19.0 mph30.6 kmh 29.68 in1005.1 mb 0.00 in0.0 mm 0.00 in0.0 mm 0.39 in9.9 mm
01:30 PM 37.3°F2.9°C 36.0°F2.2°C 95% 10.0 mph ENE16.1 kmh ENE 19.0 mph30.6 kmh 29.68 in1005.1 mb 0.00 in0.0 mm 0.00 in0.0 mm 0.39 in9.9 mm
01:32 PM 37.3°F2.9°C 36.0°F2.2°C 95% 10.0 mph ENE16.1 kmh ENE 19.0 mph30.6 kmh 29.68 in1005.1 mb 0.00 in0.0 mm 0.00 in0.0 mm 0.39 in9.9 mm
01:34 PM 37.4°F3.0°C 36.1°F2.3°C 95% 9.0 mph ENE14.5 kmh ENE 19.0 mph30.6 kmh 29.68 in1005.1 mb 0.00 in0.0 mm 0.00 in0.0 mm 0.39 in9.9 mm
01:36 PM 37.4°F3.0°C 36.1°F2.3°C 95% 9.0 mph ENE14.5 kmh ENE 23.0 mph37.0 kmh 29.68 in1005.1 mb 0.00 in0.0 mm 0.00 in0.0 mm 0.39 in9.9 mm
01:38 PM 37.5°F3.1°C 36.2°F2.3°C 95% 9.0 mph ENE14.5 kmh ENE 23.0 mph37.0 kmh 29.69 in1005.4 mb 0.00 in0.0 mm 0.00 in0.0 mm 0.39 in9.9 mm
01:40 PM 37.5°F3.1°C 36.2°F2.3°C 95% 8.0 mph ENE12.9 kmh ENE 23.0 mph37.0 kmh 29.68 in1005.1 mb 0.00 in0.0 mm 0.00 in0.0 mm 0.39 in9.9 mm
01:42 PM 37.5°F3.1°C 36.2°F2.3°C 95% 8.0 mph ENE12.9 kmh ENE 23.0 mph37.0 kmh 29.68 in1005.1 mb 0.00 in0.0 mm 0.00 in0.0 mm 0.39 in9.9 mm
01:44 PM 37.5°F3.1°C 36.2°F2.3°C 95% 8.0 mph ENE12.9 kmh ENE 23.0 mph37.0 kmh 29.68 in1005.1 mb 0.00 in0.0 mm 0.00 in0.0 mm 0.39 in9.9 mm
01:46 PM 37.5°F3.1°C 36.2°F2.3°C 95% 8.0 mph E12.9 kmh E 18.0 mph29.0 kmh 29.68 in1005.1 mb 0.00 in0.0 mm 0.00 in0.0 mm 0.39 in9.9 mm
01:48 PM 37.6°F3.1°C 36.3°F2.4°C 95% 8.0 mph E12.9 kmh E 18.0 mph29.0 kmh 29.69 in1005.4 mb 0.00 in0.0 mm 0.00 in0.0 mm 0.39 in9.9 mm
01:50 PM 37.6°F3.1°C 36.3°F2.4°C 95% 8.0 mph E12.9 kmh E 16.0 mph25.7 kmh 29.69 in1005.4 mb 0.00 in0.0 mm 0.00 in0.0 mm 0.39 in9.9 mm
01:52 PM 37.6°F3.1°C 36.3°F2.4°C 95% 7.0 mph E11.3 kmh E 18.0 mph29.0 kmh 29.69 in1005.4 mb 0.00 in0.0 mm 0.00 in0.0 mm 0.39 in9.9 mm
01:54 PM 37.7°F3.2°C 36.4°F2.4°C 95% 7.0 mph E11.3 kmh E 18.0 mph29.0 kmh 29.69 in1005.4 mb 0.00 in0.0 mm 0.00 in0.0 mm 0.39 in9.9 mm
01:56 PM 37.7°F3.2°C 36.4°F2.4°C 95% 7.0 mph E11.3 kmh E 18.0 mph29.0 kmh 29.69 in1005.4 mb 0.00 in0.0 mm 0.00 in0.0 mm 0.39 in9.9 mm
01:58 PM 37.7°F3.2°C 36.4°F2.4°C 95% 7.0 mph E11.3 kmh E 18.0 mph29.0 kmh 29.69 in1005.4 mb 0.00 in0.0 mm 0.00 in0.0 mm 0.39 in9.9 mm
02:00 PM 37.8°F3.2°C 36.5°F2.5°C 95% 7.0 mph E11.3 kmh E 18.0 mph29.0 kmh 29.69 in1005.4 mb 0.00 in0.0 mm 0.00 in0.0 mm 0.39 in9.9 mm
02:02 PM 37.8°F3.2°C 36.5°F2.5°C 95% 8.0 mph E12.9 kmh E 18.0 mph29.0 kmh 29.70 in1005.8 mb 0.00 in0.0 mm 0.00 in0.0 mm 0.39 in9.9 mm
02:04 PM 37.8°F3.2°C 36.5°F2.5°C 95% 7.0 mph E11.3 kmh E 18.0 mph29.0 kmh 29.69 in1005.4 mb 0.00 in0.0 mm 0.00 in0.0 mm 0.39 in9.9 mm
02:06 PM 37.9°F3.3°C 36.6°F2.6°C 95% 6.0 mph E9.7 kmh E 13.0 mph20.9 kmh 29.69 in1005.4 mb 0.00 in0.0 mm 0.00 in0.0 mm 0.39 in9.9 mm
02:08 PM 37.9°F3.3°C 36.6°F2.6°C 95% 6.0 mph E9.7 kmh E 13.0 mph20.9 kmh 29.69 in1005.4 mb 0.00 in0.0 mm 0.00 in0.0 mm 0.39 in9.9 mm
02:10 PM 37.9°F3.3°C 36.6°F2.6°C 95% 7.0 mph E11.3 kmh E 13.0 mph20.9 kmh 29.69 in1005.4 mb 0.00 in0.0 mm 0.00 in0.0 mm 0.39 in9.9 mm
02:12 PM 38.0°F3.3°C 36.7°F2.6°C 95% 6.0 mph E9.7 kmh E 13.0 mph20.9 kmh 29.69 in1005.4 mb 0.00 in0.0 mm 0.00 in0.0 mm 0.39 in9.9 mm
02:14 PM 38.0°F3.3°C 36.7°F2.6°C 95% 6.0 mph E9.7 kmh E 13.0 mph20.9 kmh 29.69 in1005.4 mb 0.00 in0.0 mm 0.00 in0.0 mm 0.39 in9.9 mm
02:16 PM 38.0°F3.3°C 36.7°F2.6°C 95% 7.0 mph E11.3 kmh E 14.0 mph22.5 kmh 29.69 in1005.4 mb 0.00 in0.0 mm 0.00 in0.0 mm 0.39 in9.9 mm
02:18 PM 38.1°F3.4°C 36.8°F2.7°C 95% 7.0 mph E11.3 kmh E 15.0 mph24.1 kmh 29.69 in1005.4 mb 0.00 in0.0 mm 0.00 in0.0 mm 0.39 in9.9 mm
02:20 PM 38.1°F3.4°C 36.8°F2.7°C 95% 6.0 mph E9.7 kmh E 15.0 mph24.1 kmh 29.69 in1005.4 mb 0.00 in0.0 mm 0.00 in0.0 mm 0.39 in9.9 mm
02:22 PM 38.2°F3.4°C 36.9°F2.7°C 95% 6.0 mph E9.7 kmh E 15.0 mph24.1 kmh 29.70 in1005.8 mb 0.00 in0.0 mm 0.00 in0.0 mm 0.39 in9.9 mm
02:24 PM 38.2°F3.4°C 36.9°F2.7°C 95% 6.0 mph E9.7 kmh E 15.0 mph24.1 kmh 29.70 in1005.8 mb 0.00 in0.0 mm 0.00 in0.0 mm 0.39 in9.9 mm
02:26 PM 38.3°F3.5°C 37.0°F2.8°C 95% 6.0 mph E9.7 kmh E 15.0 mph24.1 kmh 29.70 in1005.8 mb 0.00 in0.0 mm 0.00 in0.0 mm 0.39 in9.9 mm
02:28 PM 38.3°F3.5°C 37.0°F2.8°C 95% 5.0 mph E8.0 kmh E 10.0 mph16.1 kmh 29.70 in1005.8 mb 0.00 in0.0 mm 0.00 in0.0 mm 0.39 in9.9 mm
02:30 PM 38.3°F3.5°C 37.0°F2.8°C 95% 5.0 mph E8.0 kmh E 12.0 mph19.3 kmh 29.70 in1005.8 mb 0.00 in0.0 mm 0.00 in0.0 mm 0.39 in9.9 mm
02:32 PM 38.4°F3.6°C 37.1°F2.8°C 95% 5.0 mph E8.0 kmh E 12.0 mph19.3 kmh 29.70 in1005.8 mb 0.00 in0.0 mm 0.00 in0.0 mm 0.39 in9.9 mm
02:34 PM 38.4°F3.6°C 37.1°F2.8°C 95% 5.0 mph E8.0 kmh E 12.0 mph19.3 kmh 29.70 in1005.8 mb 0.00 in0.0 mm 0.00 in0.0 mm 0.39 in9.9 mm
02:36 PM 38.4°F3.6°C 37.1°F2.8°C 95% 5.0 mph E8.0 kmh E 12.0 mph19.3 kmh 29.70 in1005.8 mb 0.00 in0.0 mm 0.00 in0.0 mm 0.39 in9.9 mm
02:38 PM 38.4°F3.6°C 37.1°F2.8°C 95% 5.0 mph E8.0 kmh E 12.0 mph19.3 kmh 29.69 in1005.4 mb 0.00 in0.0 mm 0.00 in0.0 mm 0.39 in9.9 mm
02:40 PM 38.5°F3.6°C 37.2°F2.9°C 95% 5.0 mph E8.0 kmh E 13.0 mph20.9 kmh 29.69 in1005.4 mb 0.00 in0.0 mm 0.00 in0.0 mm 0.39 in9.9 mm
02:42 PM 38.5°F3.6°C 37.2°F2.9°C 95% 5.0 mph E8.0 kmh E 13.0 mph20.9 kmh 29.69 in1005.4 mb 0.00 in0.0 mm 0.00 in0.0 mm 0.39 in9.9 mm
02:44 PM 38.5°F3.6°C 37.2°F2.9°C 95% 5.0 mph E8.0 kmh E 13.0 mph20.9 kmh 29.69 in1005.4 mb 0.00 in0.0 mm 0.00 in0.0 mm 0.39 in9.9 mm
02:46 PM 38.6°F3.7°C 37.3°F2.9°C 95% 5.0 mph E8.0 kmh E 13.0 mph20.9 kmh 29.68 in1005.1 mb 0.00 in0.0 mm 0.00 in0.0 mm 0.39 in9.9 mm
02:48 PM 38.6°F3.7°C 37.3°F2.9°C 95% 5.0 mph E8.0 kmh E 13.0 mph20.9 kmh 29.68 in1005.1 mb 0.00 in0.0 mm 0.00 in0.0 mm 0.39 in9.9 mm
02:50 PM 38.6°F3.7°C 37.3°F2.9°C 95% 5.0 mph E8.0 kmh E 10.0 mph16.1 kmh 29.68 in1005.1 mb 0.00 in0.0 mm 0.00 in0.0 mm 0.39 in9.9 mm
02:52 PM 38.7°F3.7°C 37.4°F3.0°C 95% 5.0 mph E8.0 kmh E 10.0 mph16.1 kmh 29.69 in1005.4 mb 0.00 in0.0 mm 0.00 in0.0 mm 0.39 in9.9 mm
02:54 PM 38.7°F3.7°C 37.4°F3.0°C 95% 5.0 mph E8.0 kmh E 12.0 mph19.3 kmh 29.68 in1005.1 mb 0.00 in0.0 mm 0.00 in0.0 mm 0.39 in9.9 mm
02:56 PM 38.8°F3.8°C 37.5°F3.1°C 95% 5.0 mph E8.0 kmh E 12.0 mph19.3 kmh 29.68 in1005.1 mb 0.00 in0.0 mm 0.00 in0.0 mm 0.39 in9.9 mm
02:58 PM 38.8°F3.8°C 37.5°F3.1°C 95% 5.0 mph E8.0 kmh E 12.0 mph19.3 kmh 29.68 in1005.1 mb 0.00 in0.0 mm 0.00 in0.0 mm 0.39 in9.9 mm
03:00 PM 38.8°F3.8°C 37.5°F3.1°C 95% 6.0 mph E9.7 kmh E 18.0 mph29.0 kmh 29.68 in1005.1 mb 0.00 in0.0 mm 0.00 in0.0 mm 0.39 in9.9 mm
03:02 PM 38.9°F3.8°C 37.6°F3.1°C 95% 7.0 mph E11.3 kmh E 18.0 mph29.0 kmh 29.68 in1005.1 mb 0.00 in0.0 mm 0.00 in0.0 mm 0.39 in9.9 mm
03:04 PM 38.9°F3.8°C 37.6°F3.1°C 95% 6.0 mph E9.7 kmh E 18.0 mph29.0 kmh 29.68 in1005.1 mb 0.00 in0.0 mm 0.00 in0.0 mm 0.39 in9.9 mm
03:06 PM 39.0°F3.9°C 37.7°F3.2°C 95% 7.0 mph E11.3 kmh E 18.0 mph29.0 kmh 29.68 in1005.1 mb 0.00 in0.0 mm 0.00 in0.0 mm 0.39 in9.9 mm
03:08 PM 39.0°F3.9°C 37.7°F3.2°C 95% 7.0 mph E11.3 kmh E 18.0 mph29.0 kmh 29.68 in1005.1 mb 0.00 in0.0 mm 0.00 in0.0 mm 0.39 in9.9 mm
03:10 PM 39.0°F3.9°C 37.7°F3.2°C 95% 7.0 mph E11.3 kmh E 16.0 mph25.7 kmh 29.67 in1004.7 mb 0.00 in0.0 mm 0.00 in0.0 mm 0.39 in9.9 mm
03:12 PM 39.0°F3.9°C 37.7°F3.2°C 95% 7.0 mph E11.3 kmh E 16.0 mph25.7 kmh 29.68 in1005.1 mb 0.00 in0.0 mm 0.00 in0.0 mm 0.39 in9.9 mm
03:14 PM 39.0°F3.9°C 37.7°F3.2°C 95% 7.0 mph E11.3 kmh E 16.0 mph25.7 kmh 29.67 in1004.7 mb 0.00 in0.0 mm 0.00 in0.0 mm 0.39 in9.9 mm
03:16 PM 39.0°F3.9°C 37.7°F3.2°C 95% 7.0 mph E11.3 kmh E 16.0 mph25.7 kmh 29.67 in1004.7 mb 0.00 in0.0 mm 0.00 in0.0 mm 0.39 in9.9 mm
03:18 PM 39.1°F3.9°C 37.8°F3.2°C 95% 6.0 mph E9.7 kmh E 16.0 mph25.7 kmh 29.67 in1004.7 mb 0.00 in0.0 mm 0.00 in0.0 mm 0.39 in9.9 mm
03:20 PM 39.1°F3.9°C 37.8°F3.2°C 95% 6.0 mph E9.7 kmh E 12.0 mph19.3 kmh 29.67 in1004.7 mb 0.00 in0.0 mm 0.00 in0.0 mm 0.39 in9.9 mm
03:22 PM 39.0°F3.9°C 37.7°F3.2°C 95% 6.0 mph E9.7 kmh E 14.0 mph22.5 kmh 29.67 in1004.7 mb 0.00 in0.0 mm 0.00 in0.0 mm 0.39 in9.9 mm
03:24 PM 39.1°F3.9°C 37.8°F3.2°C 95% 6.0 mph E9.7 kmh E 14.0 mph22.5 kmh 29.67 in1004.7 mb 0.00 in0.0 mm 0.00 in0.0 mm 0.39 in9.9 mm
03:26 PM 39.1°F3.9°C 37.8°F3.2°C 95% 6.0 mph E9.7 kmh E 14.0 mph22.5 kmh 29.67 in1004.7 mb 0.00 in0.0 mm 0.00 in0.0 mm 0.39 in9.9 mm
03:28 PM 39.1°F3.9°C 37.8°F3.2°C 95% 6.0 mph E9.7 kmh E 14.0 mph22.5 kmh 29.67 in1004.7 mb 0.00 in0.0 mm 0.00 in0.0 mm 0.39 in9.9 mm
03:30 PM 39.1°F3.9°C 37.8°F3.2°C 95% 6.0 mph E9.7 kmh E 14.0 mph22.5 kmh 29.66 in1004.4 mb 0.00 in0.0 mm 0.00 in0.0 mm 0.39 in9.9 mm
03:32 PM 39.1°F3.9°C 37.8°F3.2°C 95% 6.0 mph E9.7 kmh E 14.0 mph22.5 kmh 29.66 in1004.4 mb 0.00 in0.0 mm 0.00 in0.0 mm 0.39 in9.9 mm
03:34 PM 39.1°F3.9°C 37.8°F3.2°C 95% 6.0 mph E9.7 kmh E 14.0 mph22.5 kmh 29.65 in1004.1 mb 0.00 in0.0 mm 0.00 in0.0 mm 0.39 in9.9 mm
03:36 PM 39.2°F4.0°C 37.9°F3.3°C 95% 6.0 mph E9.7 kmh E 14.0 mph22.5 kmh 29.65 in1004.1 mb 0.00 in0.0 mm 0.00 in0.0 mm 0.39 in9.9 mm
03:38 PM 39.1°F3.9°C 37.8°F3.2°C 95% 6.0 mph E9.7 kmh E 14.0 mph22.5 kmh 29.65 in1004.1 mb 0.00 in0.0 mm 0.00 in0.0 mm 0.39 in9.9 mm
03:40 PM 39.2°F4.0°C 37.9°F3.3°C 95% 7.0 mph E11.3 kmh E 14.0 mph22.5 kmh 29.65 in1004.1 mb 0.00 in0.0 mm 0.00 in0.0 mm 0.39 in9.9 mm
03:42 PM 39.2°F4.0°C 37.9°F3.3°C 95% 6.0 mph E9.7 kmh E 14.0 mph22.5 kmh 29.65 in1004.1 mb 0.00 in0.0 mm 0.00 in0.0 mm 0.39 in9.9 mm
03:44 PM 39.2°F4.0°C 37.9°F3.3°C 95% 7.0 mph E11.3 kmh E 15.0 mph24.1 kmh 29.66 in1004.4 mb 0.00 in0.0 mm 0.00 in0.0 mm 0.39 in9.9 mm
03:46 PM 39.2°F4.0°C 37.9°F3.3°C 95% 7.0 mph E11.3 kmh E 15.0 mph24.1 kmh 29.65 in1004.1 mb 0.00 in0.0 mm 0.00 in0.0 mm 0.39 in9.9 mm
03:48 PM 39.2°F4.0°C 37.9°F3.3°C 95% 7.0 mph E11.3 kmh E 15.0 mph24.1 kmh 29.65 in1004.1 mb 0.00 in0.0 mm 0.00 in0.0 mm 0.39 in9.9 mm
03:50 PM 39.2°F4.0°C 37.9°F3.3°C 95% 7.0 mph E11.3 kmh E 15.0 mph24.1 kmh 29.65 in1004.1 mb 0.00 in0.0 mm 0.00 in0.0 mm 0.39 in9.9 mm
03:52 PM 39.2°F4.0°C 37.9°F3.3°C 95% 7.0 mph E11.3 kmh E 15.0 mph24.1 kmh 29.65 in1004.1 mb 0.00 in0.0 mm 0.00 in0.0 mm 0.39 in9.9 mm
03:54 PM 39.3°F4.1°C 38.0°F3.3°C 95% 7.0 mph E11.3 kmh E 12.0 mph19.3 kmh 29.65 in1004.1 mb 0.00 in0.0 mm 0.00 in0.0 mm 0.39 in9.9 mm
03:56 PM 39.3°F4.1°C 38.0°F3.3°C 95% 7.0 mph E11.3 kmh E 12.0 mph19.3 kmh 29.64 in1003.7 mb 0.00 in0.0 mm 0.00 in0.0 mm 0.39 in9.9 mm
03:58 PM 39.3°F4.1°C 38.0°F3.3°C 95% 7.0 mph E11.3 kmh E 13.0 mph20.9 kmh 29.64 in1003.7 mb 0.00 in0.0 mm 0.00 in0.0 mm 0.39 in9.9 mm
04:00 PM 39.3°F4.1°C 38.0°F3.3°C 95% 7.0 mph E11.3 kmh E 13.0 mph20.9 kmh 29.64 in1003.7 mb 0.00 in0.0 mm 0.00 in0.0 mm 0.39 in9.9 mm
04:02 PM 39.3°F4.1°C 38.0°F3.3°C 95% 6.0 mph E9.7 kmh E 13.0 mph20.9 kmh 29.64 in1003.7 mb 0.00 in0.0 mm 0.00 in0.0 mm 0.39 in9.9 mm
04:04 PM 39.3°F4.1°C 38.0°F3.3°C 95% 6.0 mph E9.7 kmh E 14.0 mph22.5 kmh 29.64 in1003.7 mb 0.00 in0.0 mm 0.00 in0.0 mm 0.39 in9.9 mm
04:06 PM 39.3°F4.1°C 38.0°F3.3°C 95% 6.0 mph E9.7 kmh E 14.0 mph22.5 kmh 29.64 in1003.7 mb 0.00 in0.0 mm 0.00 in0.0 mm 0.39 in9.9 mm
04:08 PM 39.3°F4.1°C 38.0°F3.3°C 95% 6.0 mph E9.7 kmh E 14.0 mph22.5 kmh 29.63 in1003.4 mb 0.00 in0.0 mm 0.00 in0.0 mm 0.39 in9.9 mm
04:10 PM 39.3°F4.1°C 38.0°F3.3°C 95% 6.0 mph E9.7 kmh E 14.0 mph22.5 kmh 29.63 in1003.4 mb 0.00 in0.0 mm 0.00 in0.0 mm 0.39 in9.9 mm
04:12 PM 39.4°F4.1°C 38.1°F3.4°C 95% 6.0 mph E9.7 kmh E 14.0 mph22.5 kmh 29.63 in1003.4 mb 0.00 in0.0 mm 0.00 in0.0 mm 0.39 in9.9 mm
04:14 PM 39.4°F4.1°C 38.1°F3.4°C 95% 6.0 mph E9.7 kmh E 16.0 mph25.7 kmh 29.63 in1003.4 mb 0.00 in0.0 mm 0.00 in0.0 mm 0.39 in9.9 mm
04:16 PM 39.3°F4.1°C 38.0°F3.3°C 95% 7.0 mph E11.3 kmh E 16.0 mph25.7 kmh 29.63 in1003.4 mb 0.00 in0.0 mm 0.00 in0.0 mm 0.39 in9.9 mm
04:18 PM 39.4°F4.1°C 38.1°F3.4°C 95% 6.0 mph E9.7 kmh E 16.0 mph25.7 kmh 29.62 in1003.0 mb 0.00 in0.0 mm 0.00 in0.0 mm 0.39 in9.9 mm
04:20 PM 39.4°F4.1°C 38.1°F3.4°C 95% 6.0 mph E9.7 kmh E 16.0 mph25.7 kmh 29.62 in1003.0 mb 0.00 in0.0 mm 0.00 in0.0 mm 0.39 in9.9 mm
04:22 PM 39.4°F4.1°C 38.1°F3.4°C 95% 6.0 mph E9.7 kmh E 16.0 mph25.7 kmh 29.62 in1003.0 mb 0.00 in0.0 mm 0.00 in0.0 mm 0.39 in9.9 mm
04:24 PM 39.4°F4.1°C 38.1°F3.4°C 95% 6.0 mph E9.7 kmh E 14.0 mph22.5 kmh 29.62 in1003.0 mb 0.00 in0.0 mm 0.00 in0.0 mm 0.39 in9.9 mm
04:26 PM 39.4°F4.1°C 38.1°F3.4°C 95% 6.0 mph E9.7 kmh E 14.0 mph22.5 kmh 29.62 in1003.0 mb 0.00 in0.0 mm 0.00 in0.0 mm 0.39 in9.9 mm
04:28 PM 39.4°F4.1°C 38.1°F3.4°C 95% 7.0 mph E11.3 kmh E 14.0 mph22.5 kmh 29.62 in1003.0 mb 0.00 in0.0 mm 0.00 in0.0 mm 0.39 in9.9 mm
04:30 PM 39.4°F4.1°C 38.1°F3.4°C 95% 7.0 mph E11.3 kmh E 14.0 mph22.5 kmh 29.61 in1002.7 mb 0.00 in0.0 mm 0.00 in0.0 mm 0.39 in9.9 mm
04:32 PM 39.4°F4.1°C 38.1°F3.4°C 95% 7.0 mph E11.3 kmh E 14.0 mph22.5 kmh 29.61 in1002.7 mb 0.00 in0.0 mm 0.00 in0.0 mm 0.39 in9.9 mm
04:34 PM 39.4°F4.1°C 38.1°F3.4°C 95% 7.0 mph ENE11.3 kmh ENE 14.0 mph22.5 kmh 29.61 in1002.7 mb 0.00 in0.0 mm 0.00 in0.0 mm 0.39 in9.9 mm
04:36 PM 39.4°F4.1°C 38.1°F3.4°C 95% 7.0 mph ENE11.3 kmh ENE 16.0 mph25.7 kmh 29.61 in1002.7 mb 0.00 in0.0 mm 0.00 in0.0 mm 0.39 in9.9 mm
04:38 PM 39.5°F4.2°C 38.2°F3.4°C 95% 7.0 mph ENE11.3 kmh ENE 16.0 mph25.7 kmh 29.62 in1003.0 mb 0.00 in0.0 mm 0.00 in0.0 mm 0.39 in9.9 mm
04:40 PM 39.4°F4.1°C 38.1°F3.4°C 95% 7.0 mph ENE11.3 kmh ENE 16.0 mph25.7 kmh 29.61 in1002.7 mb 0.00 in0.0 mm 0.00 in0.0 mm 0.39 in9.9 mm
04:42 PM 39.5°F4.2°C 38.2°F3.4°C 95% 7.0 mph ENE11.3 kmh ENE 16.0 mph25.7 kmh 29.61 in1002.7 mb 0.00 in0.0 mm 0.00 in0.0 mm 0.39 in9.9 mm
04:44 PM 39.5°F4.2°C 38.2°F3.4°C 95% 6.0 mph E9.7 kmh E 16.0 mph25.7 kmh 29.61 in1002.7 mb 0.00 in0.0 mm 0.00 in0.0 mm 0.39 in9.9 mm
04:46 PM 39.5°F4.2°C 38.2°F3.4°C 95% 6.0 mph E9.7 kmh E 12.0 mph19.3 kmh 29.62 in1003.0 mb 0.00 in0.0 mm 0.00 in0.0 mm 0.39 in9.9 mm
04:48 PM 39.5°F4.2°C 38.2°F3.4°C 95% 6.0 mph E9.7 kmh E 11.0 mph17.7 kmh 29.62 in1003.0 mb 0.00 in0.0 mm 0.00 in0.0 mm 0.39 in9.9 mm
04:50 PM 39.5°F4.2°C 38.2°F3.4°C 95% 6.0 mph E9.7 kmh E 13.0 mph20.9 kmh 29.62 in1003.0 mb 0.00 in0.0 mm 0.00 in0.0 mm 0.39 in9.9 mm
04:52 PM 39.5°F4.2°C 38.2°F3.4°C 95% 6.0 mph E9.7 kmh E 13.0 mph20.9 kmh 29.61 in1002.7 mb 0.00 in0.0 mm 0.00 in0.0 mm 0.39 in9.9 mm
04:54 PM 39.5°F4.2°C 38.2°F3.4°C 95% 6.0 mph E9.7 kmh E 13.0 mph20.9 kmh 29.61 in1002.7 mb 0.00 in0.0 mm 0.00 in0.0 mm 0.39 in9.9 mm
04:56 PM 39.5°F4.2°C 38.2°F3.4°C 95% 6.0 mph E9.7 kmh E 13.0 mph20.9 kmh 29.61 in1002.7 mb 0.00 in0.0 mm 0.00 in0.0 mm 0.39 in9.9 mm
04:58 PM 39.5°F4.2°C 38.2°F3.4°C 95% 6.0 mph E9.7 kmh E 14.0 mph22.5 kmh 29.61 in1002.7 mb 0.00 in0.0 mm 0.00 in0.0 mm 0.39 in9.9 mm
05:00 PM 39.5°F4.2°C 38.2°F3.4°C 95% 6.0 mph E9.7 kmh E 14.0 mph22.5 kmh 29.61 in1002.7 mb 0.00 in0.0 mm 0.00 in0.0 mm 0.39 in9.9 mm
05:02 PM 39.5°F4.2°C 38.2°F3.4°C 95% 6.0 mph E9.7 kmh E 14.0 mph22.5 kmh 29.61 in1002.7 mb 0.00 in0.0 mm 0.00 in0.0 mm 0.39 in9.9 mm
05:04 PM 39.5°F4.2°C 38.2°F3.4°C 95% 6.0 mph E9.7 kmh E 14.0 mph22.5 kmh 29.60 in1002.4 mb 0.00 in0.0 mm 0.00 in0.0 mm 0.39 in9.9 mm
05:06 PM 39.5°F4.2°C 38.2°F3.4°C 95% 6.0 mph E9.7 kmh E 14.0 mph22.5 kmh 29.60 in1002.4 mb 0.00 in0.0 mm 0.00 in0.0 mm 0.39 in9.9 mm
05:08 PM 39.5°F4.2°C 38.2°F3.4°C 95% 6.0 mph E9.7 kmh E 11.0 mph17.7 kmh 29.60 in1002.4 mb 0.00 in0.0 mm 0.00 in0.0 mm 0.39 in9.9 mm
05:10 PM 39.5°F4.2°C 38.2°F3.4°C 95% 6.0 mph E9.7 kmh E 11.0 mph17.7 kmh 29.60 in1002.4 mb 0.00 in0.0 mm 0.00 in0.0 mm 0.39 in9.9 mm
05:12 PM 39.5°F4.2°C 38.2°F3.4°C 95% 6.0 mph E9.7 kmh E 12.0 mph19.3 kmh 29.60 in1002.4 mb 0.00 in0.0 mm 0.00 in0.0 mm 0.39 in9.9 mm
05:14 PM 39.5°F4.2°C 38.2°F3.4°C 95% 6.0 mph E9.7 kmh E 12.0 mph19.3 kmh 29.60 in1002.4 mb 0.00 in0.0 mm 0.00 in0.0 mm 0.39 in9.9 mm
05:16 PM 39.5°F4.2°C 38.2°F3.4°C 95% 6.0 mph E9.7 kmh E 16.0 mph25.7 kmh 29.60 in1002.4 mb 0.00 in0.0 mm 0.00 in0.0 mm 0.39 in9.9 mm
05:18 PM 39.5°F4.2°C 38.2°F3.4°C 95% 6.0 mph E9.7 kmh E 16.0 mph25.7 kmh 29.59 in1002.0 mb 0.00 in0.0 mm 0.00 in0.0 mm 0.39 in9.9 mm
05:20 PM 39.5°F4.2°C 38.2°F3.4°C 95% 6.0 mph E9.7 kmh E 16.0 mph25.7 kmh 29.59 in1002.0 mb 0.00 in0.0 mm 0.00 in0.0 mm 0.39 in9.9 mm
05:22 PM 39.5°F4.2°C 38.2°F3.4°C 95% 6.0 mph E9.7 kmh E 16.0 mph25.7 kmh 29.59 in1002.0 mb 0.00 in0.0 mm 0.00 in0.0 mm 0.39 in9.9 mm
05:24 PM 39.5°F4.2°C 38.2°F3.4°C 95% 7.0 mph E11.3 kmh E 16.0 mph25.7 kmh 29.59 in1002.0 mb 0.00 in0.0 mm 0.00 in0.0 mm 0.39 in9.9 mm
05:26 PM 39.5°F4.2°C 38.2°F3.4°C 95% 6.0 mph E9.7 kmh E 14.0 mph22.5 kmh 29.60 in1002.4 mb 0.00 in0.0 mm 0.00 in0.0 mm 0.39 in9.9 mm
05:28 PM 39.5°F4.2°C 38.2°F3.4°C 95% 6.0 mph E9.7 kmh E 14.0 mph22.5 kmh 29.59 in1002.0 mb 0.00 in0.0 mm 0.00 in0.0 mm 0.39 in9.9 mm
05:30 PM 39.5°F4.2°C 38.2°F3.4°C 95% 6.0 mph E9.7 kmh E 14.0 mph22.5 kmh 29.59 in1002.0 mb 0.00 in0.0 mm 0.00 in0.0 mm 0.39 in9.9 mm
05:32 PM 39.5°F4.2°C 38.2°F3.4°C 95% 6.0 mph E9.7 kmh E 14.0 mph22.5 kmh 29.59 in1002.0 mb 0.00 in0.0 mm 0.00 in0.0 mm 0.39 in9.9 mm
05:34 PM 39.6°F4.2°C 38.3°F3.5°C 95% 6.0 mph E9.7 kmh E 14.0 mph22.5 kmh 29.59 in1002.0 mb 0.00 in0.0 mm 0.00 in0.0 mm 0.39 in9.9 mm
05:36 PM 39.6°F4.2°C 38.3°F3.5°C 95% 5.0 mph E8.0 kmh E 10.0 mph16.1 kmh 29.59 in1002.0 mb 0.00 in0.0 mm 0.00 in0.0 mm 0.39 in9.9 mm
05:38 PM 39.6°F4.2°C 38.3°F3.5°C 95% 5.0 mph E8.0 kmh E 10.0 mph16.1 kmh 29.59 in1002.0 mb 0.00 in0.0 mm 0.00 in0.0 mm 0.39 in9.9 mm
05:40 PM 39.6°F4.2°C 38.3°F3.5°C 95% 6.0 mph E9.7 kmh E 11.0 mph17.7 kmh 29.59 in1002.0 mb 0.00 in0.0 mm 0.00 in0.0 mm 0.39 in9.9 mm
05:44 PM 39.6°F4.2°C 38.3°F3.5°C 95% 6.0 mph E9.7 kmh E 11.0 mph17.7 kmh 29.58 in1001.7 mb 0.00 in0.0 mm 0.00 in0.0 mm 0.39 in9.9 mm
05:46 PM 39.6°F4.2°C 38.3°F3.5°C 95% 6.0 mph E9.7 kmh E 11.0 mph17.7 kmh 29.58 in1001.7 mb 0.00 in0.0 mm 0.00 in0.0 mm 0.39 in9.9 mm
05:48 PM 39.7°F4.3°C 38.4°F3.6°C 95% 6.0 mph E9.7 kmh E 13.0 mph20.9 kmh 29.58 in1001.7 mb 0.00 in0.0 mm 0.00 in0.0 mm 0.39 in9.9 mm
05:50 PM 39.7°F4.3°C 38.4°F3.6°C 95% 6.0 mph E9.7 kmh E 13.0 mph20.9 kmh 29.57 in1001.4 mb 0.00 in0.0 mm 0.00 in0.0 mm 0.39 in9.9 mm
05:52 PM 39.7°F4.3°C 38.4°F3.6°C 95% 6.0 mph E9.7 kmh E 13.0 mph20.9 kmh 29.57 in1001.4 mb 0.00 in0.0 mm 0.00 in0.0 mm 0.39 in9.9 mm
05:54 PM 39.7°F4.3°C 38.4°F3.6°C 95% 6.0 mph E9.7 kmh E 13.0 mph20.9 kmh 29.57 in1001.4 mb 0.00 in0.0 mm 0.00 in0.0 mm 0.39 in9.9 mm
05:56 PM 39.7°F4.3°C 38.4°F3.6°C 95% 6.0 mph E9.7 kmh E 13.0 mph20.9 kmh 29.57 in1001.4 mb 0.00 in0.0 mm 0.00 in0.0 mm 0.39 in9.9 mm
05:58 PM 39.7°F4.3°C 38.4°F3.6°C 95% 6.0 mph E9.7 kmh E 18.0 mph29.0 kmh 29.57 in1001.4 mb 0.00 in0.0 mm 0.00 in0.0 mm 0.39 in9.9 mm
06:00 PM 39.7°F4.3°C 38.4°F3.6°C 95% 6.0 mph E9.7 kmh E 18.0 mph29.0 kmh 29.57 in1001.4 mb 0.00 in0.0 mm 0.00 in0.0 mm 0.39 in9.9 mm
06:02 PM 39.7°F4.3°C 38.4°F3.6°C 95% 6.0 mph E9.7 kmh E 18.0 mph29.0 kmh 29.57 in1001.4 mb 0.00 in0.0 mm 0.00 in0.0 mm 0.39 in9.9 mm
06:04 PM 39.7°F4.3°C 38.4°F3.6°C 95% 6.0 mph E9.7 kmh E 18.0 mph29.0 kmh 29.56 in1001.0 mb 0.00 in0.0 mm 0.00 in0.0 mm 0.39 in9.9 mm
06:06 PM 39.8°F4.3°C 38.5°F3.6°C 95% 7.0 mph E11.3 kmh E 18.0 mph29.0 kmh 29.56 in1001.0 mb 0.00 in0.0 mm 0.00 in0.0 mm 0.39 in9.9 mm
06:08 PM 39.8°F4.3°C 38.5°F3.6°C 95% 6.0 mph E9.7 kmh E 15.0 mph24.1 kmh 29.55 in1000.7 mb 0.00 in0.0 mm 0.00 in0.0 mm 0.39 in9.9 mm
06:10 PM 39.8°F4.3°C 38.5°F3.6°C 95% 6.0 mph E9.7 kmh E 15.0 mph24.1 kmh 29.55 in1000.7 mb 0.00 in0.0 mm 0.00 in0.0 mm 0.39 in9.9 mm
06:12 PM 39.8°F4.3°C 38.5°F3.6°C 95% 6.0 mph E9.7 kmh E 15.0 mph24.1 kmh 29.55 in1000.7 mb 0.00 in0.0 mm 0.00 in0.0 mm 0.39 in9.9 mm
06:14 PM 39.8°F4.3°C 38.5°F3.6°C 95% 6.0 mph E9.7 kmh E 15.0 mph24.1 kmh 29.55 in1000.7 mb 0.00 in0.0 mm 0.00 in0.0 mm 0.39 in9.9 mm
06:16 PM 39.8°F4.3°C 38.5°F3.6°C 95% 6.0 mph E9.7 kmh E 12.0 mph19.3 kmh 29.55 in1000.7 mb 0.00 in0.0 mm 0.00 in0.0 mm 0.39 in9.9 mm
06:18 PM 39.8°F4.3°C 38.5°F3.6°C 95% 6.0 mph E9.7 kmh E 12.0 mph19.3 kmh 29.55 in1000.7 mb 0.00 in0.0 mm 0.00 in0.0 mm 0.39 in9.9 mm
06:20 PM 39.8°F4.3°C 38.5°F3.6°C 95% 6.0 mph E9.7 kmh E 13.0 mph20.9 kmh 29.55 in1000.7 mb 0.00 in0.0 mm 0.00 in0.0 mm 0.39 in9.9 mm
06:22 PM 39.9°F4.4°C 38.6°F3.7°C 95% 6.0 mph E9.7 kmh E 13.0 mph20.9 kmh 29.55 in1000.7 mb 0.00 in0.0 mm 0.00 in0.0 mm 0.39 in9.9 mm
06:24 PM 39.9°F4.4°C 38.6°F3.7°C 95% 6.0 mph E9.7 kmh E 13.0 mph20.9 kmh 29.55 in1000.7 mb 0.00 in0.0 mm 0.00 in0.0 mm 0.39 in9.9 mm
06:26 PM 39.9°F4.4°C 38.6°F3.7°C 95% 6.0 mph E9.7 kmh E 16.0 mph25.7 kmh 29.55 in1000.7 mb 0.00 in0.0 mm 0.00 in0.0 mm 0.39 in9.9 mm
06:28 PM 39.9°F4.4°C 38.6°F3.7°C 95% 6.0 mph E9.7 kmh E 16.0 mph25.7 kmh 29.55 in1000.7 mb 0.00 in0.0 mm 0.00 in0.0 mm 0.39 in9.9 mm
06:30 PM 39.9°F4.4°C 38.6°F3.7°C 95% 6.0 mph E9.7 kmh E 16.0 mph25.7 kmh 29.55 in1000.7 mb 0.00 in0.0 mm 0.00 in0.0 mm 0.39 in9.9 mm
06:32 PM 39.9°F4.4°C 38.6°F3.7°C 95% 7.0 mph E11.3 kmh E 16.0 mph25.7 kmh 29.55 in1000.7 mb 0.00 in0.0 mm 0.00 in0.0 mm 0.39 in9.9 mm
06:34 PM 40.0°F4.4°C 38.7°F3.7°C 95% 6.0 mph E9.7 kmh E 16.0 mph25.7 kmh 29.55 in1000.7 mb 0.00 in0.0 mm 0.00 in0.0 mm 0.39 in9.9 mm
06:36 PM 40.0°F4.4°C 38.7°F3.7°C 95% 5.0 mph E8.0 kmh E 11.0 mph17.7 kmh 29.55 in1000.7 mb 0.00 in0.0 mm 0.00 in0.0 mm 0.39 in9.9 mm
06:38 PM 40.0°F4.4°C 38.7°F3.7°C 95% 5.0 mph E8.0 kmh E 11.0 mph17.7 kmh 29.55 in1000.7 mb 0.00 in0.0 mm 0.00 in0.0 mm 0.39 in9.9 mm
06:40 PM 40.0°F4.4°C 38.7°F3.7°C 95% 5.0 mph E8.0 kmh E 11.0 mph17.7 kmh 29.55 in1000.7 mb 0.00 in0.0 mm 0.00 in0.0 mm 0.39 in9.9 mm
06:42 PM 40.0°F4.4°C 38.7°F3.7°C 95% 5.0 mph E8.0 kmh E 11.0 mph17.7 kmh 29.55 in1000.7 mb 0.00 in0.0 mm 0.00 in0.0 mm 0.39 in9.9 mm
06:44 PM 40.1°F4.5°C 38.8°F3.8°C 95% 5.0 mph E8.0 kmh E 11.0 mph17.7 kmh 29.56 in1001.0 mb 0.00 in0.0 mm 0.00 in0.0 mm 0.39 in9.9 mm
06:46 PM 40.1°F4.5°C 38.8°F3.8°C 95% 5.0 mph E8.0 kmh E 11.0 mph17.7 kmh 29.55 in1000.7 mb 0.00 in0.0 mm 0.00 in0.0 mm 0.39 in9.9 mm
06:48 PM 40.1°F4.5°C 38.8°F3.8°C 95% 5.0 mph E8.0 kmh E 11.0 mph17.7 kmh 29.55 in1000.7 mb 0.00 in0.0 mm 0.00 in0.0 mm 0.39 in9.9 mm
06:50 PM 40.1°F4.5°C 38.8°F3.8°C 95% 5.0 mph E8.0 kmh E 11.0 mph17.7 kmh 29.55 in1000.7 mb 0.00 in0.0 mm 0.00 in0.0 mm 0.39 in9.9 mm
06:52 PM 40.1°F4.5°C 38.8°F3.8°C 95% 5.0 mph E8.0 kmh E 9.0 mph14.5 kmh 29.55 in1000.7 mb 0.00 in0.0 mm 0.00 in0.0 mm 0.39 in9.9 mm
06:54 PM 40.1°F4.5°C 38.8°F3.8°C 95% 5.0 mph E8.0 kmh E 9.0 mph14.5 kmh 29.54 in1000.3 mb 0.00 in0.0 mm 0.00 in0.0 mm 0.39 in9.9 mm
06:56 PM 40.2°F4.6°C 38.9°F3.8°C 95% 4.0 mph E6.4 kmh E 9.0 mph14.5 kmh 29.54 in1000.3 mb 0.00 in0.0 mm 0.00 in0.0 mm 0.39 in9.9 mm
06:58 PM 40.2°F4.6°C 38.9°F3.8°C 95% 4.0 mph E6.4 kmh E 8.0 mph12.9 kmh 29.54 in1000.3 mb 0.00 in0.0 mm 0.00 in0.0 mm 0.39 in9.9 mm
07:00 PM 40.2°F4.6°C 38.9°F3.8°C 95% 4.0 mph E6.4 kmh E 8.0 mph12.9 kmh 29.54 in1000.3 mb 0.00 in0.0 mm 0.00 in0.0 mm 0.39 in9.9 mm
07:02 PM 40.2°F4.6°C 38.9°F3.8°C 95% 4.0 mph E6.4 kmh E 8.0 mph12.9 kmh 29.53 in1000.0 mb 0.00 in0.0 mm 0.00 in0.0 mm 0.39 in9.9 mm
07:04 PM 40.2°F4.6°C 38.9°F3.8°C 95% 4.0 mph E6.4 kmh E 8.0 mph12.9 kmh 29.53 in1000.0 mb 0.00 in0.0 mm 0.00 in0.0 mm 0.39 in9.9 mm
07:06 PM 40.3°F4.6°C 39.0°F3.9°C 95% 4.0 mph E6.4 kmh E 9.0 mph14.5 kmh 29.53 in1000.0 mb 0.00 in0.0 mm 0.00 in0.0 mm 0.39 in9.9 mm
07:08 PM 40.3°F4.6°C 39.0°F3.9°C 95% 4.0 mph E6.4 kmh E 9.0 mph14.5 kmh 29.53 in1000.0 mb 0.00 in0.0 mm 0.00 in0.0 mm 0.39 in9.9 mm
07:10 PM 40.4°F4.7°C 39.1°F3.9°C 95% 5.0 mph E8.0 kmh E 9.0 mph14.5 kmh 29.53 in1000.0 mb 0.00 in0.0 mm 0.00 in0.0 mm 0.39 in9.9 mm
07:12 PM 40.4°F4.7°C 39.1°F3.9°C 95% 5.0 mph E8.0 kmh E 9.0 mph14.5 kmh 29.53 in1000.0 mb 0.00 in0.0 mm 0.00 in0.0 mm 0.39 in9.9 mm
07:14 PM 40.4°F4.7°C 39.1°F3.9°C 95% 5.0 mph E8.0 kmh E 9.0 mph14.5 kmh 29.53 in1000.0 mb 0.00 in0.0 mm 0.00 in0.0 mm 0.39 in9.9 mm
07:16 PM 40.4°F4.7°C 39.1°F3.9°C 95% 4.0 mph E6.4 kmh E 8.0 mph12.9 kmh 29.53 in1000.0 mb 0.00 in0.0 mm 0.00 in0.0 mm 0.39 in9.9 mm
07:18 PM 40.5°F4.7°C 39.2°F4.0°C 95% 5.0 mph E8.0 kmh E 9.0 mph14.5 kmh 29.53 in1000.0 mb 0.00 in0.0 mm 0.00 in0.0 mm 0.39 in9.9 mm
07:20 PM 40.5°F4.7°C 39.2°F4.0°C 95% 5.0 mph E8.0 kmh E 12.0 mph19.3 kmh 29.52 in999.7 mb 0.00 in0.0 mm 0.00 in0.0 mm 0.39 in9.9 mm
07:22 PM 40.5°F4.7°C 39.2°F4.0°C 95% 5.0 mph E8.0 kmh E 12.0 mph19.3 kmh 29.52 in999.7 mb 0.00 in0.0 mm 0.00 in0.0 mm 0.39 in9.9 mm
07:24 PM 40.5°F4.7°C 39.2°F4.0°C 95% 5.0 mph E8.0 kmh E 12.0 mph19.3 kmh 29.52 in999.7 mb 0.00 in0.0 mm 0.00 in0.0 mm 0.39 in9.9 mm
07:26 PM 40.5°F4.7°C 39.2°F4.0°C 95% 5.0 mph E8.0 kmh E 12.0 mph19.3 kmh 29.52 in999.7 mb 0.00 in0.0 mm 0.00 in0.0 mm 0.39 in9.9 mm
07:28 PM 40.5°F4.7°C 39.2°F4.0°C 95% 4.0 mph E6.4 kmh E 12.0 mph19.3 kmh 29.51 in999.3 mb 0.00 in0.0 mm 0.00 in0.0 mm 0.39 in9.9 mm
07:30 PM 40.5°F4.7°C 39.2°F4.0°C 95% 4.0 mph E6.4 kmh E 11.0 mph17.7 kmh 29.51 in999.3 mb 0.00 in0.0 mm 0.00 in0.0 mm 0.39 in9.9 mm
07:32 PM 40.6°F4.8°C 39.3°F4.1°C 95% 4.0 mph E6.4 kmh E 10.0 mph16.1 kmh 29.51 in999.3 mb 0.00 in0.0 mm 0.00 in0.0 mm 0.39 in9.9 mm
07:34 PM 40.6°F4.8°C 39.3°F4.1°C 95% 4.0 mph E6.4 kmh E 9.0 mph14.5 kmh 29.50 in999.0 mb 0.00 in0.0 mm 0.00 in0.0 mm 0.39 in9.9 mm
07:36 PM 40.6°F4.8°C 39.3°F4.1°C 95% 4.0 mph E6.4 kmh E 9.0 mph14.5 kmh 29.50 in999.0 mb 0.00 in0.0 mm 0.00 in0.0 mm 0.39 in9.9 mm
07:38 PM 40.6°F4.8°C 39.3°F4.1°C 95% 5.0 mph E8.0 kmh E 10.0 mph16.1 kmh 29.51 in999.3 mb 0.00 in0.0 mm 0.00 in0.0 mm 0.39 in9.9 mm
07:40 PM 40.7°F4.8°C 39.4°F4.1°C 95% 4.0 mph E6.4 kmh E 10.0 mph16.1 kmh 29.50 in999.0 mb 0.00 in0.0 mm 0.00 in0.0 mm 0.39 in9.9 mm
07:42 PM 40.7°F4.8°C 39.4°F4.1°C 95% 4.0 mph E6.4 kmh E 10.0 mph16.1 kmh 29.50 in999.0 mb 0.00 in0.0 mm 0.00 in0.0 mm 0.39 in9.9 mm
07:44 PM 40.7°F4.8°C 39.4°F4.1°C 95% 4.0 mph E6.4 kmh E 10.0 mph16.1 kmh 29.50 in999.0 mb 0.00 in0.0 mm 0.00 in0.0 mm 0.39 in9.9 mm
07:46 PM 40.7°F4.8°C 39.4°F4.1°C 95% 4.0 mph E6.4 kmh E 10.0 mph16.1 kmh 29.50 in999.0 mb 0.00 in0.0 mm 0.00 in0.0 mm 0.39 in9.9 mm
07:48 PM 40.8°F4.9°C 39.5°F4.2°C 95% 4.0 mph E6.4 kmh E 10.0 mph16.1 kmh 29.50 in999.0 mb 0.00 in0.0 mm 0.00 in0.0 mm 0.39 in9.9 mm
07:50 PM 40.8°F4.9°C 39.5°F4.2°C 95% 4.0 mph E6.4 kmh E 10.0 mph16.1 kmh 29.50 in999.0 mb 0.00 in0.0 mm 0.00 in0.0 mm 0.39 in9.9 mm
07:52 PM 40.8°F4.9°C 39.5°F4.2°C 95% 4.0 mph E6.4 kmh E 10.0 mph16.1 kmh 29.50 in999.0 mb 0.00 in0.0 mm 0.00 in0.0 mm 0.39 in9.9 mm
07:54 PM 40.9°F4.9°C 39.6°F4.2°C 95% 4.0 mph E6.4 kmh E 10.0 mph16.1 kmh 29.50 in999.0 mb 0.00 in0.0 mm 0.00 in0.0 mm 0.39 in9.9 mm
07:56 PM 40.9°F4.9°C 39.6°F4.2°C 95% 3.0 mph E4.8 kmh E 10.0 mph16.1 kmh 29.50 in999.0 mb 0.00 in0.0 mm 0.00 in0.0 mm 0.39 in9.9 mm
07:58 PM 41.0°F5.0°C 39.7°F4.3°C 95% 3.0 mph E4.8 kmh E 7.0 mph11.3 kmh 29.50 in999.0 mb 0.00 in0.0 mm 0.00 in0.0 mm 0.39 in9.9 mm
08:00 PM 41.0°F5.0°C 39.7°F4.3°C 95% 3.0 mph E4.8 kmh E 6.0 mph9.7 kmh 29.50 in999.0 mb 0.00 in0.0 mm 0.00 in0.0 mm 0.39 in9.9 mm
08:02 PM 41.1°F5.1°C 39.8°F4.3°C 95% 3.0 mph E4.8 kmh E 5.0 mph8.0 kmh 29.50 in999.0 mb 0.00 in0.0 mm 0.00 in0.0 mm 0.39 in9.9 mm
08:04 PM 41.1°F5.1°C 39.8°F4.3°C 95% 3.0 mph E4.8 kmh E 6.0 mph9.7 kmh 29.50 in999.0 mb 0.00 in0.0 mm 0.00 in0.0 mm 0.39 in9.9 mm
08:06 PM 41.1°F5.1°C 39.8°F4.3°C 95% 3.0 mph E4.8 kmh E 8.0 mph12.9 kmh 29.50 in999.0 mb 0.00 in0.0 mm 0.00 in0.0 mm 0.39 in9.9 mm
08:08 PM 41.2°F5.1°C 39.9°F4.4°C 95% 3.0 mph E4.8 kmh E 8.0 mph12.9 kmh 29.50 in999.0 mb 0.00 in0.0 mm 0.00 in0.0 mm 0.39 in9.9 mm
08:10 PM 41.2°F5.1°C 39.9°F4.4°C 95% 3.0 mph E4.8 kmh E 8.0 mph12.9 kmh 29.50 in999.0 mb 0.00 in0.0 mm 0.00 in0.0 mm 0.39 in9.9 mm
08:12 PM 41.2°F5.1°C 39.9°F4.4°C 95% 3.0 mph E4.8 kmh E 8.0 mph12.9 kmh 29.50 in999.0 mb 0.00 in0.0 mm 0.00 in0.0 mm 0.39 in9.9 mm
08:14 PM 41.3°F5.2°C 40.0°F4.4°C 95% 3.0 mph E4.8 kmh E 8.0 mph12.9 kmh 29.50 in999.0 mb 0.00 in0.0 mm 0.00 in0.0 mm 0.39 in9.9 mm
08:16 PM 41.3°F5.2°C 40.0°F4.4°C 95% 3.0 mph E4.8 kmh E 7.0 mph11.3 kmh 29.50 in999.0 mb 0.00 in0.0 mm 0.00 in0.0 mm 0.39 in9.9 mm
08:18 PM 41.3°F5.2°C 40.0°F4.4°C 95% 3.0 mph E4.8 kmh E 7.0 mph11.3 kmh 29.50 in999.0 mb 0.00 in0.0 mm 0.00 in0.0 mm 0.39 in9.9 mm
08:20 PM 41.3°F5.2°C 40.0°F4.4°C 95% 3.0 mph ENE4.8 kmh ENE 7.0 mph11.3 kmh 29.50 in999.0 mb 0.00 in0.0 mm 0.00 in0.0 mm 0.39 in9.9 mm
08:22 PM 41.4°F5.2°C 40.1°F4.5°C 95% 3.0 mph ENE4.8 kmh ENE 7.0 mph11.3 kmh 29.50 in999.0 mb 0.00 in0.0 mm 0.00 in0.0 mm 0.39 in9.9 mm
08:24 PM 41.4°F5.2°C 40.1°F4.5°C 95% 3.0 mph ENE4.8 kmh ENE 7.0 mph11.3 kmh 29.50 in999.0 mb 0.00 in0.0 mm 0.00 in0.0 mm 0.39 in9.9 mm
08:26 PM 41.5°F5.3°C 40.2°F4.6°C 95% 3.0 mph ENE4.8 kmh ENE 7.0 mph11.3 kmh 29.50 in999.0 mb 0.00 in0.0 mm 0.00 in0.0 mm 0.39 in9.9 mm
08:28 PM 41.5°F5.3°C 40.2°F4.6°C 95% 3.0 mph ENE4.8 kmh ENE 7.0 mph11.3 kmh 29.49 in998.6 mb 0.00 in0.0 mm 0.00 in0.0 mm 0.39 in9.9 mm
08:30 PM 41.5°F5.3°C 40.2°F4.6°C 95% 3.0 mph ENE4.8 kmh ENE 7.0 mph11.3 kmh 29.49 in998.6 mb 0.00 in0.0 mm 0.00 in0.0 mm 0.39 in9.9 mm
08:32 PM 41.5°F5.3°C 40.2°F4.6°C 95% 3.0 mph E4.8 kmh E 7.0 mph11.3 kmh 29.49 in998.6 mb 0.00 in0.0 mm 0.00 in0.0 mm 0.39 in9.9 mm
08:34 PM 41.5°F5.3°C 40.2°F4.6°C 95% 3.0 mph E4.8 kmh E 7.0 mph11.3 kmh 29.49 in998.6 mb 0.00 in0.0 mm 0.00 in0.0 mm 0.39 in9.9 mm
08:36 PM 41.5°F5.3°C 40.2°F4.6°C 95% 3.0 mph E4.8 kmh E 7.0 mph11.3 kmh 29.49 in998.6 mb 0.00 in0.0 mm 0.00 in0.0 mm 0.39 in9.9 mm
08:38 PM 41.5°F5.3°C 40.2°F4.6°C 95% 3.0 mph E4.8 kmh E 7.0 mph11.3 kmh 29.49 in998.6 mb 0.00 in0.0 mm 0.00 in0.0 mm 0.39 in9.9 mm
08:40 PM 41.5°F5.3°C 40.2°F4.6°C 95% 3.0 mph E4.8 kmh E 7.0 mph11.3 kmh 29.48 in998.3 mb 0.00 in0.0 mm 0.00 in0.0 mm 0.39 in9.9 mm
08:42 PM 41.6°F5.3°C 40.3°F4.6°C 95% 3.0 mph E4.8 kmh E 7.0 mph11.3 kmh 29.49 in998.6 mb 0.00 in0.0 mm 0.00 in0.0 mm 0.39 in9.9 mm
08:44 PM 41.6°F5.3°C 40.3°F4.6°C 95% 3.0 mph E4.8 kmh E 7.0 mph11.3 kmh 29.49 in998.6 mb 0.00 in0.0 mm 0.00 in0.0 mm 0.39 in9.9 mm
08:48 PM 41.7°F5.4°C 40.4°F4.7°C 95% 2.0 mph E3.2 kmh E 5.0 mph8.0 kmh 29.49 in998.6 mb 0.00 in0.0 mm 0.00 in0.0 mm 0.39 in9.9 mm
08:50 PM 41.7°F5.4°C 40.4°F4.7°C 95% 2.0 mph E3.2 kmh E 5.0 mph8.0 kmh 29.49 in998.6 mb 0.00 in0.0 mm 0.00 in0.0 mm 0.39 in9.9 mm
08:52 PM 41.7°F5.4°C 40.4°F4.7°C 95% 2.0 mph E3.2 kmh E 5.0 mph8.0 kmh 29.49 in998.6 mb 0.00 in0.0 mm 0.00 in0.0 mm 0.39 in9.9 mm
08:54 PM 41.8°F5.4°C 40.5°F4.7°C 95% 2.0 mph ESE3.2 kmh ESE 5.0 mph8.0 kmh 29.49 in998.6 mb 0.00 in0.0 mm 0.00 in0.0 mm 0.39 in9.9 mm
08:56 PM 41.8°F5.4°C 40.5°F4.7°C 95% 2.0 mph ESE3.2 kmh ESE 4.0 mph6.4 kmh 29.49 in998.6 mb 0.00 in0.0 mm 0.00 in0.0 mm 0.39 in9.9 mm
08:58 PM 41.8°F5.4°C 40.5°F4.7°C 95% 2.0 mph ESE3.2 kmh ESE 4.0 mph6.4 kmh 29.49 in998.6 mb 0.00 in0.0 mm 0.00 in0.0 mm 0.39 in9.9 mm
09:00 PM 41.8°F5.4°C 40.5°F4.7°C 95% 2.0 mph ESE3.2 kmh ESE 4.0 mph6.4 kmh 29.49 in998.6 mb 0.00 in0.0 mm 0.00 in0.0 mm 0.39 in9.9 mm
09:02 PM 41.8°F5.4°C 40.5°F4.7°C 95% 2.0 mph ESE3.2 kmh ESE 4.0 mph6.4 kmh 29.49 in998.6 mb 0.00 in0.0 mm 0.00 in0.0 mm 0.39 in9.9 mm
09:04 PM 41.8°F5.4°C 40.5°F4.7°C 95% 2.0 mph ESE3.2 kmh ESE 4.0 mph6.4 kmh 29.49 in998.6 mb 0.00 in0.0 mm 0.00 in0.0 mm 0.39 in9.9 mm
09:06 PM 41.8°F5.4°C 40.5°F4.7°C 95% 2.0 mph ESE3.2 kmh ESE 4.0 mph6.4 kmh 29.48 in998.3 mb 0.00 in0.0 mm 0.00 in0.0 mm 0.39 in9.9 mm
09:08 PM 41.7°F5.4°C 40.4°F4.7°C 95% 2.0 mph ESE3.2 kmh ESE 4.0 mph6.4 kmh 29.48 in998.3 mb 0.00 in0.0 mm 0.00 in0.0 mm 0.39 in9.9 mm
09:10 PM 41.7°F5.4°C 40.4°F4.7°C 95% 2.0 mph ESE3.2 kmh ESE 4.0 mph6.4 kmh 29.48 in998.3 mb 0.00 in0.0 mm 0.00 in0.0 mm 0.39 in9.9 mm
09:12 PM 41.7°F5.4°C 40.4°F4.7°C 95% 2.0 mph ESE3.2 kmh ESE 5.0 mph8.0 kmh 29.48 in998.3 mb 0.00 in0.0 mm 0.00 in0.0 mm 0.39 in9.9 mm
09:14 PM 41.7°F5.4°C 40.4°F4.7°C 95% 2.0 mph ESE3.2 kmh ESE 5.0 mph8.0 kmh 29.48 in998.3 mb 0.00 in0.0 mm 0.00 in0.0 mm 0.39 in9.9 mm
09:16 PM 41.7°F5.4°C 40.4°F4.7°C 95% 2.0 mph ESE3.2 kmh ESE 5.0 mph8.0 kmh 29.48 in998.3 mb 0.00 in0.0 mm 0.00 in0.0 mm 0.39 in9.9 mm
09:18 PM 41.7°F5.4°C 40.4°F4.7°C 95% 1.0 mph ESE1.6 kmh ESE 5.0 mph8.0 kmh 29.48 in998.3 mb 0.00 in0.0 mm 0.00 in0.0 mm 0.39 in9.9 mm
09:20 PM 41.7°F5.4°C 40.4°F4.7°C 95% 1.0 mph ESE1.6 kmh ESE 5.0 mph8.0 kmh 29.48 in998.3 mb 0.00 in0.0 mm 0.00 in0.0 mm 0.39 in9.9 mm
09:22 PM 41.7°F5.4°C 40.4°F4.7°C 95% 1.0 mph ESE1.6 kmh ESE 4.0 mph6.4 kmh 29.47 in998.0 mb 0.00 in0.0 mm 0.00 in0.0 mm 0.39 in9.9 mm
09:24 PM 41.8°F5.4°C 40.5°F4.7°C 95% 1.0 mph ESE1.6 kmh ESE 4.0 mph6.4 kmh 29.47 in998.0 mb 0.00 in0.0 mm 0.00 in0.0 mm 0.39 in9.9 mm
09:26 PM 41.9°F5.5°C 40.6°F4.8°C 95% 2.0 mph ESE3.2 kmh ESE 4.0 mph6.4 kmh 29.47 in998.0 mb 0.00 in0.0 mm 0.00 in0.0 mm 0.39 in9.9 mm
09:28 PM 42.0°F5.6°C 40.7°F4.8°C 95% 2.0 mph ESE3.2 kmh ESE 4.0 mph6.4 kmh 29.46 in997.6 mb 0.00 in0.0 mm 0.00 in0.0 mm 0.39 in9.9 mm
09:30 PM 42.0°F5.6°C 40.7°F4.8°C 95% 2.0 mph E3.2 kmh E 5.0 mph8.0 kmh 29.46 in997.6 mb 0.00 in0.0 mm 0.00 in0.0 mm 0.39 in9.9 mm
09:32 PM 42.2°F5.7°C 40.9°F4.9°C 95% 3.0 mph E4.8 kmh E 5.0 mph8.0 kmh 29.46 in997.6 mb 0.00 in0.0 mm 0.00 in0.0 mm 0.39 in9.9 mm
09:34 PM 42.2°F5.7°C 40.6°F4.8°C 94% 3.0 mph E4.8 kmh E 5.0 mph8.0 kmh 29.46 in997.6 mb 0.00 in0.0 mm 0.00 in0.0 mm 0.39 in9.9 mm
09:36 PM 42.3°F5.7°C 40.7°F4.8°C 94% 3.0 mph E4.8 kmh E 5.0 mph8.0 kmh 29.46 in997.6 mb 0.00 in0.0 mm 0.00 in0.0 mm 0.39 in9.9 mm
09:38 PM 42.4°F5.8°C 40.8°F4.9°C 94% 3.0 mph E4.8 kmh E 5.0 mph8.0 kmh 29.46 in997.6 mb 0.00 in0.0 mm 0.00 in0.0 mm 0.39 in9.9 mm
09:40 PM 42.4°F5.8°C 40.8°F4.9°C 94% 3.0 mph E4.8 kmh E 5.0 mph8.0 kmh 29.46 in997.6 mb 0.00 in0.0 mm 0.00 in0.0 mm 0.39 in9.9 mm
09:42 PM 42.4°F5.8°C 40.8°F4.9°C 94% 2.0 mph E3.2 kmh E 5.0 mph8.0 kmh 29.46 in997.6 mb 0.00 in0.0 mm 0.00 in0.0 mm 0.39 in9.9 mm
09:44 PM 42.4°F5.8°C 40.8°F4.9°C 94% 2.0 mph E3.2 kmh E 5.0 mph8.0 kmh 29.46 in997.6 mb 0.00 in0.0 mm 0.00 in0.0 mm 0.39 in9.9 mm
09:46 PM 42.4°F5.8°C 40.8°F4.9°C 94% 2.0 mph E3.2 kmh E 5.0 mph8.0 kmh 29.46 in997.6 mb 0.00 in0.0 mm 0.00 in0.0 mm 0.39 in9.9 mm
09:48 PM 42.4°F5.8°C 40.8°F4.9°C 94% 2.0 mph ESE3.2 kmh ESE 3.0 mph4.8 kmh 29.46 in997.6 mb 0.00 in0.0 mm 0.00 in0.0 mm 0.39 in9.9 mm
09:50 PM 42.4°F5.8°C 40.8°F4.9°C 94% 2.0 mph E3.2 kmh E 6.0 mph9.7 kmh 29.46 in997.6 mb 0.00 in0.0 mm 0.00 in0.0 mm 0.39 in9.9 mm
09:52 PM 42.4°F5.8°C 40.8°F4.9°C 94% 2.0 mph E3.2 kmh E 6.0 mph9.7 kmh 29.46 in997.6 mb 0.00 in0.0 mm 0.00 in0.0 mm 0.39 in9.9 mm
09:54 PM 42.4°F5.8°C 41.1°F5.1°C 95% 2.0 mph E3.2 kmh E 6.0 mph9.7 kmh 29.47 in998.0 mb 0.00 in0.0 mm 0.00 in0.0 mm 0.39 in9.9 mm
09:56 PM 42.4°F5.8°C 41.1°F5.1°C 95% 2.0 mph E3.2 kmh E 6.0 mph9.7 kmh 29.47 in998.0 mb 0.00 in0.0 mm 0.00 in0.0 mm 0.39 in9.9 mm
09:58 PM 42.4°F5.8°C 41.1°F5.1°C 95% 2.0 mph E3.2 kmh E 6.0 mph9.7 kmh 29.47 in998.0 mb 0.00 in0.0 mm 0.00 in0.0 mm 0.39 in9.9 mm
10:00 PM 42.4°F5.8°C 41.1°F5.1°C 95% 2.0 mph ENE3.2 kmh ENE 4.0 mph6.4 kmh 29.46 in997.6 mb 0.00 in0.0 mm 0.00 in0.0 mm 0.39 in9.9 mm
10:02 PM 42.4°F5.8°C 41.1°F5.1°C 95% 2.0 mph ENE3.2 kmh ENE 3.0 mph4.8 kmh 29.46 in997.6 mb 0.00 in0.0 mm 0.00 in0.0 mm 0.39 in9.9 mm
10:04 PM 42.4°F5.8°C 41.1°F5.1°C 95% 2.0 mph ENE3.2 kmh ENE 4.0 mph6.4 kmh 29.46 in997.6 mb 0.00 in0.0 mm 0.00 in0.0 mm 0.39 in9.9 mm
10:06 PM 42.4°F5.8°C 41.1°F5.1°C 95% 2.0 mph ENE3.2 kmh ENE 4.0 mph6.4 kmh 29.46 in997.6 mb 0.00 in0.0 mm 0.00 in0.0 mm 0.39 in9.9 mm
10:08 PM 42.4°F5.8°C 41.1°F5.1°C 95% 2.0 mph ENE3.2 kmh ENE 4.0 mph6.4 kmh 29.46 in997.6 mb 0.00 in0.0 mm 0.00 in0.0 mm 0.39 in9.9 mm
10:10 PM 42.4°F5.8°C 41.1°F5.1°C 95% 2.0 mph ENE3.2 kmh ENE 4.0 mph6.4 kmh 29.46 in997.6 mb 0.00 in0.0 mm 0.00 in0.0 mm 0.39 in9.9 mm
10:12 PM 42.4°F5.8°C 40.8°F4.9°C 94% 2.0 mph ENE3.2 kmh ENE 4.0 mph6.4 kmh 29.46 in997.6 mb 0.00 in0.0 mm 0.00 in0.0 mm 0.39 in9.9 mm
10:14 PM 42.4°F5.8°C 41.1°F5.1°C 95% 2.0 mph E3.2 kmh E 4.0 mph6.4 kmh 29.46 in997.6 mb 0.00 in0.0 mm 0.00 in0.0 mm 0.39 in9.9 mm
10:16 PM 42.4°F5.8°C 41.1°F5.1°C 95% 2.0 mph E3.2 kmh E 4.0 mph6.4 kmh 29.46 in997.6 mb 0.00 in0.0 mm 0.00 in0.0 mm 0.39 in9.9 mm
10:18 PM 42.4°F5.8°C 41.1°F5.1°C 95% 2.0 mph E3.2 kmh E 3.0 mph4.8 kmh 29.46 in997.6 mb 0.00 in0.0 mm 0.00 in0.0 mm 0.39 in9.9 mm
10:20 PM 42.4°F5.8°C 41.1°F5.1°C 95% 2.0 mph E3.2 kmh E 4.0 mph6.4 kmh 29.46 in997.6 mb 0.00 in0.0 mm 0.00 in0.0 mm 0.39 in9.9 mm
10:22 PM 42.4°F5.8°C 41.1°F5.1°C 95% 2.0 mph SE3.2 kmh SE 4.0 mph6.4 kmh 29.46 in997.6 mb 0.00 in0.0 mm 0.00 in0.0 mm 0.39 in9.9 mm
10:24 PM 42.4°F5.8°C 41.1°F5.1°C 95% 2.0 mph SSE3.2 kmh SSE 4.0 mph6.4 kmh 29.46 in997.6 mb 0.00 in0.0 mm 0.00 in0.0 mm 0.39 in9.9 mm
10:26 PM 42.4°F5.8°C 41.1°F5.1°C 95% 1.0 mph S1.6 kmh S 4.0 mph6.4 kmh 29.46 in997.6 mb 0.00 in0.0 mm 0.00 in0.0 mm 0.39 in9.9 mm
10:28 PM 42.4°F5.8°C 41.1°F5.1°C 95% 2.0 mph S3.2 kmh S 4.0 mph6.4 kmh 29.46 in997.6 mb 0.00 in0.0 mm 0.00 in0.0 mm 0.39 in9.9 mm
10:30 PM 42.4°F5.8°C 41.1°F5.1°C 95% 2.0 mph SSE3.2 kmh SSE 4.0 mph6.4 kmh 29.46 in997.6 mb 0.00 in0.0 mm 0.00 in0.0 mm 0.39 in9.9 mm
10:32 PM 42.4°F5.8°C 41.1°F5.1°C 95% 2.0 mph SSE3.2 kmh SSE 4.0 mph6.4 kmh 29.46 in997.6 mb 0.00 in0.0 mm 0.00 in0.0 mm 0.39 in9.9 mm
10:34 PM 42.4°F5.8°C 41.1°F5.1°C 95% 2.0 mph SSE3.2 kmh SSE 4.0 mph6.4 kmh 29.46 in997.6 mb 0.00 in0.0 mm 0.00 in0.0 mm 0.39 in9.9 mm
10:36 PM 42.5°F5.8°C 41.2°F5.1°C 95% 2.0 mph SSE3.2 kmh SSE 4.0 mph6.4 kmh 29.46 in997.6 mb 0.00 in0.0 mm 0.00 in0.0 mm 0.39 in9.9 mm
10:38 PM 42.5°F5.8°C 41.2°F5.1°C 95% 2.0 mph S3.2 kmh S 5.0 mph8.0 kmh 29.47 in998.0 mb 0.00 in0.0 mm 0.00 in0.0 mm 0.39 in9.9 mm
10:40 PM 42.5°F5.8°C 41.2°F5.1°C 95% 2.0 mph S3.2 kmh S 6.0 mph9.7 kmh 29.47 in998.0 mb 0.00 in0.0 mm 0.00 in0.0 mm 0.39 in9.9 mm
10:42 PM 42.5°F5.8°C 41.2°F5.1°C 95% 2.0 mph S3.2 kmh S 6.0 mph9.7 kmh 29.46 in997.6 mb 0.00 in0.0 mm 0.00 in0.0 mm 0.39 in9.9 mm
10:44 PM 42.5°F5.8°C 41.2°F5.1°C 95% 2.0 mph S3.2 kmh S 6.0 mph9.7 kmh 29.47 in998.0 mb 0.00 in0.0 mm 0.00 in0.0 mm 0.39 in9.9 mm
10:46 PM 42.5°F5.8°C 41.2°F5.1°C 95% 1.0 mph S1.6 kmh S 6.0 mph9.7 kmh 29.46 in997.6 mb 0.00 in0.0 mm 0.00 in0.0 mm 0.39 in9.9 mm
10:48 PM 42.5°F5.8°C 41.2°F5.1°C 95% 1.0 mph S1.6 kmh S 6.0 mph9.7 kmh 29.46 in997.6 mb 0.00 in0.0 mm 0.00 in0.0 mm 0.39 in9.9 mm
10:50 PM 42.5°F5.8°C 41.2°F5.1°C 95% Calm Calm 2.0 mph3.2 kmh 29.46 in997.6 mb 0.00 in0.0 mm 0.00 in0.0 mm 0.39 in9.9 mm
10:52 PM 42.6°F5.9°C 41.3°F5.2°C 95% Calm Calm 2.0 mph3.2 kmh 29.46 in997.6 mb 0.00 in0.0 mm 0.00 in0.0 mm 0.39 in9.9 mm
10:54 PM 42.6°F5.9°C 41.3°F5.2°C 95% Calm Calm 4.0 mph6.4 kmh 29.45 in997.3 mb 0.00 in0.0 mm 0.00 in0.0 mm 0.39 in9.9 mm
10:56 PM 42.6°F5.9°C 41.3°F5.2°C 95% 1.0 mph SSE1.6 kmh SSE 4.0 mph6.4 kmh 29.45 in997.3 mb 0.00 in0.0 mm 0.00 in0.0 mm 0.39 in9.9 mm
10:58 PM 42.6°F5.9°C 41.3°F5.2°C 95% 1.0 mph SSE1.6 kmh SSE 4.0 mph6.4 kmh 29.45 in997.3 mb 0.00 in0.0 mm 0.00 in0.0 mm 0.39 in9.9 mm
11:00 PM 42.6°F5.9°C 41.3°F5.2°C 95% 1.0 mph SSE1.6 kmh SSE 4.0 mph6.4 kmh 29.45 in997.3 mb 0.00 in0.0 mm 0.00 in0.0 mm 0.39 in9.9 mm
11:02 PM 42.6°F5.9°C 41.3°F5.2°C 95% 1.0 mph SSE1.6 kmh SSE 4.0 mph6.4 kmh 29.45 in997.3 mb 0.00 in0.0 mm 0.00 in0.0 mm 0.39 in9.9 mm
11:04 PM 42.6°F5.9°C 41.3°F5.2°C 95% 1.0 mph SE1.6 kmh SE 3.0 mph4.8 kmh 29.45 in997.3 mb 0.00 in0.0 mm 0.00 in0.0 mm 0.39 in9.9 mm
11:06 PM 42.6°F5.9°C 41.3°F5.2°C 95% 1.0 mph SE1.6 kmh SE 3.0 mph4.8 kmh 29.44 in997.0 mb 0.00 in0.0 mm 0.00 in0.0 mm 0.39 in9.9 mm
11:08 PM 42.6°F5.9°C 41.3°F5.2°C 95% 1.0 mph SE1.6 kmh SE 3.0 mph4.8 kmh 29.44 in997.0 mb 0.00 in0.0 mm 0.00 in0.0 mm 0.39 in9.9 mm
11:10 PM 42.7°F5.9°C 41.4°F5.2°C 95% 1.0 mph SE1.6 kmh SE 3.0 mph4.8 kmh 29.44 in997.0 mb 0.00 in0.0 mm 0.00 in0.0 mm 0.39 in9.9 mm
11:12 PM 42.7°F5.9°C 41.4°F5.2°C 95% 1.0 mph SE1.6 kmh SE 3.0 mph4.8 kmh 29.44 in997.0 mb 0.00 in0.0 mm 0.00 in0.0 mm 0.39 in9.9 mm
11:14 PM 42.7°F5.9°C 41.4°F5.2°C 95% 1.0 mph SE1.6 kmh SE 3.0 mph4.8 kmh 29.44 in997.0 mb 0.00 in0.0 mm 0.00 in0.0 mm 0.39 in9.9 mm
11:16 PM 42.7°F5.9°C 41.4°F5.2°C 95% 1.0 mph SE1.6 kmh SE 3.0 mph4.8 kmh 29.44 in997.0 mb 0.00 in0.0 mm 0.00 in0.0 mm 0.39 in9.9 mm
11:18 PM 42.7°F5.9°C 41.4°F5.2°C 95% 1.0 mph SE1.6 kmh SE 3.0 mph4.8 kmh 29.44 in997.0 mb 0.00 in0.0 mm 0.00 in0.0 mm 0.39 in9.9 mm
11:20 PM 42.7°F5.9°C 41.4°F5.2°C 95% 1.0 mph SE1.6 kmh SE 4.0 mph6.4 kmh 29.44 in997.0 mb 0.00 in0.0 mm 0.00 in0.0 mm 0.39 in9.9 mm
11:22 PM 42.7°F5.9°C 41.4°F5.2°C 95% 1.0 mph SE1.6 kmh SE 4.0 mph6.4 kmh 29.45 in997.3 mb 0.00 in0.0 mm 0.00 in0.0 mm 0.39 in9.9 mm
11:24 PM 42.8°F6.0°C 41.5°F5.3°C 95% 1.0 mph SE1.6 kmh SE 4.0 mph6.4 kmh 29.45 in997.3 mb 0.00 in0.0 mm 0.00 in0.0 mm 0.39 in9.9 mm
11:26 PM 42.8°F6.0°C 41.5°F5.3°C 95% 1.0 mph SE1.6 kmh SE 4.0 mph6.4 kmh 29.44 in997.0 mb 0.00 in0.0 mm 0.00 in0.0 mm 0.39 in9.9 mm
11:28 PM 42.7°F5.9°C 41.4°F5.2°C 95% 1.0 mph SE1.6 kmh SE 4.0 mph6.4 kmh 29.44 in997.0 mb 0.00 in0.0 mm 0.00 in0.0 mm 0.39 in9.9 mm
11:30 PM 42.8°F6.0°C 41.5°F5.3°C 95% Calm Calm 3.0 mph4.8 kmh 29.44 in997.0 mb 0.00 in0.0 mm 0.00 in0.0 mm 0.39 in9.9 mm
11:32 PM 42.8°F6.0°C 41.5°F5.3°C 95% Calm Calm 3.0 mph4.8 kmh 29.44 in997.0 mb 0.00 in0.0 mm 0.00 in0.0 mm 0.39 in9.9 mm
11:34 PM 42.8°F6.0°C 41.5°F5.3°C 95% Calm Calm 5.0 mph8.0 kmh 29.43 in996.6 mb 0.00 in0.0 mm 0.00 in0.0 mm 0.39 in9.9 mm
11:36 PM 42.8°F6.0°C 41.5°F5.3°C 95% 1.0 mph E1.6 kmh E 5.0 mph8.0 kmh 29.43 in996.6 mb 0.00 in0.0 mm 0.00 in0.0 mm 0.39 in9.9 mm
11:38 PM 42.8°F6.0°C 41.2°F5.1°C 94% 1.0 mph E1.6 kmh E 5.0 mph8.0 kmh 29.43 in996.6 mb 0.00 in0.0 mm 0.00 in0.0 mm 0.39 in9.9 mm
11:40 PM 42.8°F6.0°C 41.2°F5.1°C 94% 1.0 mph E1.6 kmh E 5.0 mph8.0 kmh 29.44 in997.0 mb 0.00 in0.0 mm 0.00 in0.0 mm 0.39 in9.9 mm
11:42 PM 42.8°F6.0°C 41.2°F5.1°C 94% 1.0 mph ENE1.6 kmh ENE 5.0 mph8.0 kmh 29.43 in996.6 mb 0.00 in0.0 mm 0.00 in0.0 mm 0.39 in9.9 mm
11:44 PM 42.9°F6.1°C 41.3°F5.2°C 94% 1.0 mph NE1.6 kmh NE 5.0 mph8.0 kmh 29.43 in996.6 mb 0.00 in0.0 mm 0.00 in0.0 mm 0.39 in9.9 mm
11:46 PM 42.8°F6.0°C 41.2°F5.1°C 94% 1.0 mph NE1.6 kmh NE 2.0 mph3.2 kmh 29.43 in996.6 mb 0.00 in0.0 mm 0.00 in0.0 mm 0.39 in9.9 mm
11:48 PM 42.9°F6.1°C 41.3°F5.2°C 94% 1.0 mph NE1.6 kmh NE 3.0 mph4.8 kmh 29.43 in996.6 mb 0.00 in0.0 mm 0.00 in0.0 mm 0.39 in9.9 mm
11:50 PM 42.9°F6.1°C 41.3°F5.2°C 94% 1.0 mph NE1.6 kmh NE 3.0 mph4.8 kmh 29.42 in996.3 mb 0.00 in0.0 mm 0.00 in0.0 mm 0.39 in9.9 mm
11:52 PM 42.9°F6.1°C 41.3°F5.2°C 94% 1.0 mph NE1.6 kmh NE 3.0 mph4.8 kmh 29.42 in996.3 mb 0.00 in0.0 mm 0.00 in0.0 mm 0.39 in9.9 mm
11:54 PM 42.9°F6.1°C 41.3°F5.2°C 94% 1.0 mph NE1.6 kmh NE 3.0 mph4.8 kmh 29.42 in996.3 mb 0.00 in0.0 mm 0.00 in0.0 mm 0.39 in9.9 mm
11:56 PM 42.9°F6.1°C 41.3°F5.2°C 94% 1.0 mph NE1.6 kmh NE 3.0 mph4.8 kmh 29.41 in995.9 mb 0.00 in0.0 mm 0.00 in0.0 mm 0.39 in9.9 mm
11:58 PM 42.8°F6.0°C 41.5°F5.3°C 95% 1.0 mph NE1.6 kmh NE 3.0 mph4.8 kmh 29.41 in995.9 mb 0.00 in0.0 mm 0.00 in0.0 mm 0.39 in9.9 mm